Ticket #53: logfile_jumping_hw.nmea

File logfile_jumping_hw.nmea, 69.0 KB (added by matth, 12 years ago)

vienna; highway A22 from lower austria to the city

Line 
1GPSD,R=1
2$GPGSA,A,3,14,20,03,28,19,11,22,01,,,,,1.91,0.92,1.68*08
3$GPRMC,160955.000,A,4819.443612,N,01620.477151,E,53.583,155.32,261207,,,A*6E
4$GPVTG,155.32,T,,M,53.583,N,99.289,K,A*36
5$GPGGA,160956.000,4819.430238,N,01620.486506,E,1,8,0.92,168.465,M,43.457,M,,*5D
6$GPGSA,A,3,14,20,03,28,19,11,22,01,,,,,1.91,0.92,1.68*08
7$GPRMC,160956.000,A,4819.430238,N,01620.486506,E,52.579,155.28,261207,,,A*62
8$GPVTG,155.28,T,,M,52.579,N,97.430,K,A*33
9$GPGGA,160957.000,4819.417098,N,01620.495465,E,1,8,0.92,168.484,M,43.456,M,,*59
10$GPGSA,A,3,14,20,03,28,19,11,22,01,,,,,1.91,0.92,1.68*08
11$GPRMC,160957.000,A,4819.417098,N,01620.495465,E,51.225,155.33,261207,,,A*6F
12$GPVTG,155.33,T,,M,51.225,N,94.920,K,A*3B
13$GPGGA,160958.000,4819.404366,N,01620.504492,E,1,8,0.92,168.599,M,43.456,M,,*5A
14$GPGSA,A,3,14,20,03,28,19,11,22,01,,,,,1.91,0.92,1.68*08
15$GPRMC,160958.000,A,4819.404366,N,01620.504492,E,50.366,154.84,261207,,,A*6B
16$GPVTG,154.84,T,,M,50.366,N,93.328,K,A*34
17$GPGGA,160959.000,4819.391582,N,01620.513688,E,1,8,0.92,168.616,M,43.456,M,,*57
18$GPGSA,A,3,14,20,03,28,19,11,22,01,,,,,1.91,0.92,1.68*08
19$GPGSV,3,1,10,11,55,291,43,01,51,122,37,19,47,182,41,14,45,071,43*77
20$GPGSV,3,2,10,20,24,242,40,22,22,060,35,03,17,170,32,28,16,300,41*74
21$GPGSV,3,3,10,17,04,324,37,09,03,018,34*7F
22$GPRMC,160959.000,A,4819.391582,N,01620.513688,E,51.484,154.36,261207,,,A*61
23$GPVTG,154.36,T,,M,51.484,N,95.399,K,A*3B
24$GPGGA,161000.000,4819.378486,N,01620.522891,E,1,8,0.92,169.294,M,43.456,M,,*5A
25$GPGSA,A,3,14,20,03,28,19,11,22,01,,,,,1.91,0.92,1.68*08
26$GPRMC,161000.000,A,4819.378486,N,01620.522891,E,52.174,154.91,261207,,,A*67
27$GPVTG,154.91,T,,M,52.174,N,96.679,K,A*37
28$GPGGA,161001.000,4819.365459,N,01620.531996,E,1,8,0.92,169.805,M,43.456,M,,*53
29$GPGSA,A,3,14,20,03,28,19,11,22,01,,,,,1.91,0.92,1.68*08
30$GPRMC,161001.000,A,4819.365459,N,01620.531996,E,52.654,155.39,261207,,,A*6A
31$GPVTG,155.39,T,,M,52.654,N,97.567,K,A*3C
32$GPGGA,161002.000,4819.352208,N,01620.540867,E,1,8,0.92,169.782,M,43.455,M,,*5C
33$GPGSA,A,3,14,20,03,28,19,11,22,01,,,,,1.91,0.92,1.68*08
34$GPRMC,161002.000,A,4819.352208,N,01620.540867,E,53.296,156.37,261207,,,A*60
35$GPVTG,156.37,T,,M,53.296,N,98.758,K,A*3B
36$GPGGA,161003.000,4819.338532,N,01620.549561,E,1,8,0.91,170.041,M,43.455,M,,*5E
37$GPGSA,A,3,14,20,03,28,19,11,22,01,,,,,1.91,0.91,1.68*0B
38$GPRMC,161003.000,A,4819.338532,N,01620.549561,E,54.559,157.48,261207,,,A*6B
39$GPVTG,157.48,T,,M,54.559,N,101.098,K,A*0B
40$GPGGA,161004.000,4819.324473,N,01620.558019,E,1,8,0.92,170.160,M,43.455,M,,*5B
41$GPGSA,A,3,14,20,03,28,19,11,22,01,,,,,1.91,0.92,1.68*08
42$GPGSV,3,1,10,11,55,291,43,01,51,122,36,19,47,182,40,14,45,071,40*74
43$GPGSV,3,2,10,20,24,242,41,22,22,060,27,03,17,170,25,28,16,300,39*7F
44$GPGSV,3,3,10,17,04,324,33,09,03,018,30*7F
45$GPRMC,161004.000,A,4819.324473,N,01620.558019,E,55.220,158.16,261207,,,A*63
46$GPVTG,158.16,T,,M,55.220,N,102.322,K,A*06
47$GPGGA,161005.000,4819.309904,N,01620.566588,E,1,8,0.92,170.855,M,43.455,M,,*57
48$GPGSA,A,3,14,20,03,28,19,11,22,01,,,,,1.91,0.92,1.68*08
49$GPRMC,161005.000,A,4819.309904,N,01620.566588,E,56.030,158.65,261207,,,A*64
50$GPVTG,158.65,T,,M,56.030,N,103.823,K,A*09
51$GPGGA,161006.000,4819.295158,N,01620.574992,E,1,8,0.92,171.278,M,43.454,M,,*50
52$GPGSA,A,3,14,20,03,28,19,11,22,01,,,,,1.91,0.92,1.68*08
53$GPRMC,161006.000,A,4819.295158,N,01620.574992,E,56.882,159.45,261207,,,A*64
54$GPVTG,159.45,T,,M,56.882,N,105.402,K,A*02
55$GPGGA,161007.000,4819.280377,N,01620.583434,E,1,8,0.92,171.454,M,43.454,M,,*5B
56$GPGSA,A,3,14,20,03,28,19,11,22,01,,,,,1.91,0.92,1.68*08
57$GPRMC,161007.000,A,4819.280377,N,01620.583434,E,57.530,159.55,261207,,,A*63
58$GPVTG,159.55,T,,M,57.530,N,106.603,K,A*06
59$GPGGA,161008.000,4819.265123,N,01620.592056,E,1,8,0.92,171.839,M,43.454,M,,*5B
60$GPGSA,A,3,14,20,03,28,19,11,22,01,,,,,1.91,0.92,1.68*08
61$GPRMC,161008.000,A,4819.265123,N,01620.592056,E,58.377,159.95,261207,,,A*62
62$GPVTG,159.95,T,,M,58.377,N,108.172,K,A*0F
63$GPGGA,161009.000,4819.249704,N,01620.600281,E,1,8,0.92,172.182,M,43.454,M,,*5D
64$GPGSA,A,3,14,20,03,28,19,11,22,01,,,,,1.91,0.92,1.68*08
65$GPGSV,3,1,10,11,55,291,43,01,51,122,38,19,47,182,39,14,45,071,39*7A
66$GPGSV,3,2,10,20,24,242,38,22,22,060,35,03,17,170,26,28,16,299,41*7F
67$GPGSV,3,3,10,17,04,324,36,09,03,018,30*7A
68$GPRMC,161009.000,A,4819.249704,N,01620.600281,E,58.986,160.62,261207,,,A*68
69$GPVTG,160.62,T,,M,58.986,N,109.301,K,A*0E
70$GPGGA,161010.000,4819.233950,N,01620.608523,E,1,8,0.91,171.989,M,43.454,M,,*53
71$GPGSA,A,3,14,20,03,28,19,11,22,01,,,,,1.91,0.91,1.68*0B
72$GPRMC,161010.000,A,4819.233950,N,01620.608523,E,59.751,161.02,261207,,,A*67
73$GPVTG,161.02,T,,M,59.751,N,110.719,K,A*09
74$GPGGA,161011.000,4819.217928,N,01620.616508,E,1,8,0.92,171.756,M,43.453,M,,*55
75$GPGSA,A,3,14,20,03,28,19,11,22,01,,,,,1.91,0.92,1.68*08
76$GPRMC,161011.000,A,4819.217928,N,01620.616508,E,60.564,161.66,261207,,,A*65
77$GPVTG,161.66,T,,M,60.564,N,112.225,K,A*0D
78$GPGGA,161012.000,4819.201989,N,01620.624476,E,1,8,0.92,172.190,M,43.453,M,,*5C
79$GPGSA,A,3,14,20,03,28,19,11,22,01,,,,,1.91,0.92,1.67*07
80$GPRMC,161012.000,A,4819.201989,N,01620.624476,E,61.179,161.95,261207,,,A*66
81$GPVTG,161.95,T,,M,61.179,N,113.365,K,A*0C
82$GPGGA,161013.000,4819.185661,N,01620.632525,E,1,8,0.92,172.312,M,43.453,M,,*53
83$GPGSA,A,3,14,20,03,28,19,11,22,01,,,,,1.91,0.92,1.67*07
84$GPRMC,161013.000,A,4819.185661,N,01620.632525,E,61.927,161.97,261207,,,A*60
85$GPVTG,161.97,T,,M,61.927,N,114.751,K,A*09
86$GPGGA,161014.000,4819.168944,N,01620.640053,E,1,8,0.92,172.632,M,43.453,M,,*59
87$GPGSA,A,3,14,20,03,28,19,11,22,01,,,,,1.91,0.92,1.67*07
88$GPGSV,3,1,10,11,55,291,43,01,51,121,37,19,47,182,39,14,45,071,41*79
89$GPGSV,3,2,10,20,24,242,32,22,22,060,36,03,17,170,36,28,16,299,33*72
90$GPGSV,3,3,10,17,04,324,33,09,03,018,26*78
91$GPRMC,161014.000,A,4819.168944,N,01620.640053,E,62.659,162.65,261207,,,A*66
92$GPVTG,162.65,T,,M,62.659,N,116.108,K,A*0A
93$GPGGA,161015.000,4819.152046,N,01620.647785,E,1,8,0.92,172.908,M,43.452,M,,*56
94$GPGSA,A,3,14,20,03,28,19,11,22,01,,,,,1.91,0.92,1.67*07
95$GPRMC,161015.000,A,4819.152046,N,01620.647785,E,63.254,163.18,261207,,,A*6D
96$GPVTG,163.18,T,,M,63.254,N,117.209,K,A*0A
97$GPGGA,161016.000,4819.135131,N,01620.655055,E,1,8,0.92,172.700,M,43.452,M,,*5A
98$GPGSA,A,3,14,20,03,28,19,11,22,01,,,,,1.91,0.92,1.67*07
99$GPRMC,161016.000,A,4819.135131,N,01620.655055,E,63.607,163.79,261207,,,A*62
100$GPVTG,163.79,T,,M,63.607,N,117.863,K,A*09
101$GPGGA,161017.000,4819.118003,N,01620.662082,E,1,8,0.92,172.740,M,43.452,M,,*5E
102$GPGSA,A,3,14,20,03,28,19,11,22,01,,,,,1.91,0.92,1.67*07
103$GPRMC,161017.000,A,4819.118003,N,01620.662082,E,63.934,164.23,261207,,,A*65
104$GPVTG,164.23,T,,M,63.934,N,118.470,K,A*0F
105$GPGGA,161018.000,4819.101125,N,01620.669227,E,1,8,0.91,172.807,M,43.452,M,,*55
106$GPGSA,A,3,14,20,03,28,19,11,22,01,,,,,1.91,0.91,1.67*04
107$GPRMC,161018.000,A,4819.101125,N,01620.669227,E,64.346,164.74,261207,,,A*6B
108$GPVTG,164.74,T,,M,64.346,N,119.232,K,A*04
109$GPGGA,161019.000,4819.083780,N,01620.676050,E,1,8,0.91,172.826,M,43.451,M,,*5A
110$GPGSA,A,3,14,20,03,28,19,11,22,01,,,,,1.91,0.91,1.67*04
111$GPGSV,3,1,10,11,55,291,44,01,51,121,38,19,47,182,40,14,45,071,42*7C
112$GPGSV,3,2,10,20,24,242,34,22,22,060,40,03,17,170,38,28,16,299,41*7E
113$GPGSV,3,3,10,17,04,324,32,09,03,018,30*7E
114$GPRMC,161019.000,A,4819.083780,N,01620.676050,E,64.830,165.38,261207,,,A*67
115$GPVTG,165.38,T,,M,64.830,N,120.131,K,A*0D
116$GPGGA,161020.000,4819.066514,N,01620.682964,E,1,8,0.91,172.680,M,43.451,M,,*53
117$GPGSA,A,3,14,20,03,28,19,11,22,01,,,,,1.91,0.91,1.67*04
118$GPRMC,161020.000,A,4819.066514,N,01620.682964,E,64.959,166.39,261207,,,A*60
119$GPVTG,166.39,T,,M,64.959,N,120.369,K,A*0E
120$GPGGA,161021.000,4819.049034,N,01620.688983,E,1,8,0.92,172.582,M,43.451,M,,*59
121$GPGSA,A,3,14,20,03,28,19,11,22,01,,,,,1.91,0.92,1.67*07
122$GPRMC,161021.000,A,4819.049034,N,01620.688983,E,65.001,167.57,261207,,,A*64
123$GPVTG,167.57,T,,M,65.001,N,120.447,K,A*09
124$GPGGA,161022.000,4819.031376,N,01620.694171,E,1,8,0.92,172.263,M,43.451,M,,*50
125$GPGSA,A,3,14,20,03,28,19,11,22,01,,,,,1.91,0.92,1.67*07
126$GPRMC,161022.000,A,4819.031376,N,01620.694171,E,64.963,169.27,261207,,,A*60
127$GPVTG,169.27,T,,M,64.963,N,120.376,K,A*09
128$GPGGA,161023.000,4819.013807,N,01620.698976,E,1,8,0.91,172.274,M,43.451,M,,*5A
129$GPGSA,A,3,14,20,03,28,19,11,22,01,,,,,1.91,0.91,1.67*04
130$GPRMC,161023.000,A,4819.013807,N,01620.698976,E,64.997,170.76,261207,,,A*68
131$GPVTG,170.76,T,,M,64.997,N,120.440,K,A*0C
132$GPGGA,161024.000,4818.996115,N,01620.703066,E,1,8,0.92,171.787,M,43.450,M,,*51
133$GPGSA,A,3,14,20,03,28,19,11,22,01,,,,,1.91,0.92,1.67*07
134$GPGSV,3,1,10,11,56,291,44,01,51,121,39,19,47,182,41,14,45,071,42*7F
135$GPGSV,3,2,10,20,24,242,25,22,22,060,40,03,17,170,37,28,16,299,24*72
136$GPGSV,3,3,10,17,04,324,18,09,03,017,35*7C
137$GPRMC,161024.000,A,4818.996115,N,01620.703066,E,65.123,171.90,261207,,,A*64
138$GPVTG,171.90,T,,M,65.123,N,120.672,K,A*00
139$GPGGA,161025.000,4818.978203,N,01620.706791,E,1,8,0.92,171.647,M,43.450,M,,*53
140$GPGSA,A,3,14,20,03,28,19,11,22,01,,,,,1.91,0.92,1.67*07
141$GPRMC,161025.000,A,4818.978203,N,01620.706791,E,65.212,172.10,261207,,,A*61
142$GPVTG,172.10,T,,M,65.212,N,120.837,K,A*05
143$GPGGA,161026.000,4818.960288,N,01620.710423,E,1,8,0.91,171.898,M,43.450,M,,*58
144$GPGSA,A,3,14,20,03,28,19,11,22,01,,,,,1.90,0.91,1.67*05
145$GPRMC,161026.000,A,4818.960288,N,01620.710423,E,64.984,172.87,261207,,,A*6E
146$GPVTG,172.87,T,,M,64.984,N,120.415,K,A*02
147$GPGGA,161027.000,4818.942520,N,01620.713561,E,1,7,1.11,171.590,M,43.450,M,,*5B
148$GPGSA,A,3,14,20,03,19,11,22,01,,,,,,2.22,1.11,1.92*06
149$GPRMC,161027.000,A,4818.942520,N,01620.713561,E,64.974,173.52,261207,,,A*68
150$GPVTG,173.52,T,,M,64.974,N,120.398,K,A*06
151$GPGGA,161028.000,4818.924629,N,01620.716098,E,1,7,1.09,171.575,M,43.450,M,,*5A
152$GPGSA,A,3,14,20,03,19,11,22,01,,,,,,1.41,1.09,0.89*02
153$GPRMC,161028.000,A,4818.924629,N,01620.716098,E,64.816,174.74,261207,,,A*6D
154$GPVTG,174.74,T,,M,64.816,N,120.104,K,A*07
155$GPGGA,161029.000,4818.906568,N,01620.717973,E,1,7,1.11,171.390,M,43.450,M,,*54
156$GPGSA,A,3,14,20,03,19,11,22,01,,,,,,2.21,1.11,1.91*06
157$GPGSV,3,1,10,11,56,291,45,01,51,121,39,19,47,182,41,14,45,071,42*7E
158$GPGSV,3,2,10,20,24,242,20,22,22,060,39,03,17,170,31,28,16,299,22*79
159$GPGSV,3,3,10,17,04,324,16,09,03,017,23*75
160$GPRMC,161029.000,A,4818.906568,N,01620.717973,E,65.340,176.20,261207,,,A*6D
161$GPVTG,176.20,T,,M,65.340,N,121.075,K,A*0B
162$GPGGA,161030.000,4818.888582,N,01620.719149,E,1,7,1.11,170.929,M,43.449,M,,*51
163$GPGSA,A,3,14,20,03,19,11,22,01,,,,,,2.21,1.11,1.91*06
164$GPRMC,161030.000,A,4818.888582,N,01620.719149,E,65.548,177.62,261207,,,A*60
165$GPVTG,177.62,T,,M,65.548,N,121.460,K,A*02
166$GPGGA,161031.000,4818.870320,N,01620.719943,E,1,7,1.11,170.899,M,43.449,M,,*51
167$GPGSA,A,3,14,20,03,19,11,22,01,,,,,,2.21,1.11,1.91*06
168$GPRMC,161031.000,A,4818.870320,N,01620.719943,E,66.039,178.50,261207,,,A*64
169$GPVTG,178.50,T,,M,66.039,N,122.371,K,A*08
170$GPGGA,161032.000,4818.851835,N,01620.720382,E,1,7,1.11,171.052,M,43.449,M,,*5D
171$GPGSA,A,3,14,20,03,19,11,22,01,,,,,,2.21,1.11,1.91*06
172$GPRMC,161032.000,A,4818.851835,N,01620.720382,E,65.984,179.50,261207,,,A*6B
173$GPVTG,179.50,T,,M,65.984,N,122.269,K,A*0D
174$GPGGA,161033.000,4818.833434,N,01620.720345,E,1,8,0.91,169.999,M,43.449,M,,*5F
175$GPGSA,A,3,14,20,03,28,19,11,22,01,,,,,1.90,0.91,1.67*05
176$GPRMC,161033.000,A,4818.833434,N,01620.720345,E,66.440,180.54,261207,,,A*6C
177$GPVTG,180.54,T,,M,66.440,N,123.112,K,A*07
178$GPGGA,161034.000,4818.815087,N,01620.719819,E,1,8,0.91,168.831,M,43.449,M,,*5A
179$GPGSA,A,3,14,20,03,28,19,11,22,01,,,,,1.90,0.91,1.67*05
180$GPGSV,3,1,10,11,56,291,45,01,51,121,42,19,47,181,39,14,45,071,42*7E
181$GPGSV,3,2,10,20,24,242,23,22,22,060,36,03,17,170,31,28,16,299,28*7F
182$GPGSV,3,3,10,17,04,324,,09,03,017,23*72
183$GPRMC,161034.000,A,4818.815087,N,01620.719819,E,66.319,181.39,261207,,,A*6A
184$GPVTG,181.39,T,,M,66.319,N,122.888,K,A*0D
185$GPGGA,161035.000,4818.796637,N,01620.718662,E,1,8,0.91,167.916,M,43.449,M,,*5A
186$GPGSA,A,3,14,20,03,28,19,11,22,01,,,,,1.90,0.91,1.67*05
187$GPRMC,161035.000,A,4818.796637,N,01620.718662,E,65.648,182.15,261207,,,A*6E
188$GPVTG,182.15,T,,M,65.648,N,121.646,K,A*0D
189$GPGGA,161036.000,4818.778321,N,01620.717478,E,1,8,0.91,167.889,M,43.449,M,,*5A
190$GPGSA,A,3,14,20,03,28,19,11,22,01,,,,,1.90,0.91,1.67*05
191$GPRMC,161036.000,A,4818.778321,N,01620.717478,E,65.345,182.89,261207,,,A*64
192$GPVTG,182.89,T,,M,65.345,N,121.084,K,A*08
193$GPGGA,161037.000,4818.760313,N,01620.715637,E,1,8,0.91,167.614,M,43.449,M,,*52
194$GPGSA,A,3,14,20,03,28,19,11,22,01,,,,,1.90,0.91,1.67*05
195$GPRMC,161037.000,A,4818.760313,N,01620.715637,E,65.442,183.68,261207,,,A*68
196$GPVTG,183.68,T,,M,65.442,N,121.265,K,A*0B
197$GPGGA,161038.000,4818.742270,N,01620.713566,E,1,8,0.91,166.377,M,43.449,M,,*59
198$GPGSA,A,3,14,20,03,28,19,11,22,01,,,,,1.90,0.91,1.67*05
199$GPRMC,161038.000,A,4818.742270,N,01620.713566,E,65.714,184.04,261207,,,A*6F
200$GPVTG,184.04,T,,M,65.714,N,121.768,K,A*0E
201$GPGGA,161039.000,4818.724112,N,01620.711709,E,1,8,0.91,167.556,M,43.448,M,,*53
202$GPGSA,A,3,14,20,03,28,19,11,22,01,,,,,1.90,0.91,1.67*05
203$GPGSV,3,1,10,11,56,291,45,01,51,121,43,19,47,181,38,14,45,071,43*7F
204$GPGSV,3,2,10,20,24,242,28,22,22,060,42,03,17,170,35,28,16,299,30*7A
205$GPGSV,3,3,10,17,04,324,,09,03,017,29*78
206$GPRMC,161039.000,A,4818.724112,N,01620.711709,E,66.065,184.27,261207,,,A*63
207$GPVTG,184.27,T,,M,66.065,N,122.419,K,A*0B
208$GPGGA,161040.000,4818.705565,N,01620.709692,E,1,8,0.91,167.999,M,43.448,M,,*5F
209$GPGSA,A,3,14,20,03,28,19,11,22,01,,,,,1.90,0.91,1.67*05
210$GPRMC,161040.000,A,4818.705565,N,01620.709692,E,66.536,184.35,261207,,,A*60
211$GPVTG,184.35,T,,M,66.536,N,123.291,K,A*0C
212$GPGGA,161041.000,4818.686947,N,01620.707805,E,1,8,0.91,168.683,M,43.448,M,,*5D
213$GPGSA,A,3,14,20,03,28,19,11,22,01,,,,,1.90,0.91,1.67*05
214$GPRMC,161041.000,A,4818.686947,N,01620.707805,E,65.669,184.39,261207,,,A*6F
215$GPVTG,184.39,T,,M,65.669,N,121.685,K,A*09
216$GPGGA,161042.000,4818.668892,N,01620.706059,E,1,8,0.91,168.486,M,43.448,M,,*50
217$GPGSA,A,3,14,20,03,28,19,11,22,01,,,,,1.90,0.91,1.67*05
218$GPRMC,161042.000,A,4818.668892,N,01620.706059,E,64.706,184.58,261207,,,A*6B
219$GPVTG,184.58,T,,M,64.706,N,119.900,K,A*0E
220$GPGGA,161043.000,4818.651092,N,01620.703882,E,1,8,0.91,168.246,M,43.448,M,,*52
221$GPGSA,A,3,14,20,03,28,19,11,22,01,,,,,1.90,0.91,1.67*05
222$GPRMC,161043.000,A,4818.651092,N,01620.703882,E,63.635,184.70,261207,,,A*6F
223$GPVTG,184.70,T,,M,63.635,N,117.916,K,A*0B
224$GPGGA,161044.000,4818.633436,N,01620.702072,E,1,8,0.91,168.613,M,43.448,M,,*59
225$GPGSA,A,3,14,20,03,28,19,11,22,01,,,,,1.90,0.91,1.67*05
226$GPGSV,3,1,10,11,56,291,46,01,51,121,44,19,47,181,38,14,45,071,44*7C
227$GPGSV,3,2,10,20,24,242,33,22,22,060,45,03,17,170,35,28,16,299,37*70
228$GPGSV,3,3,10,17,04,324,,09,03,017,38*78
229$GPRMC,161044.000,A,4818.633436,N,01620.702072,E,62.432,184.25,261207,,,A*64
230$GPVTG,184.25,T,,M,62.432,N,115.687,K,A*0A
231$GPGGA,161045.000,4818.616218,N,01620.700157,E,1,8,0.91,168.768,M,43.448,M,,*5C
232$GPGSA,A,3,14,20,03,28,19,11,22,01,,,,,1.90,0.91,1.67*05
233$GPRMC,161045.000,A,4818.616218,N,01620.700157,E,61.299,184.14,261207,,,A*6A
234$GPVTG,184.14,T,,M,61.299,N,113.586,K,A*08
235$GPGGA,161046.000,4818.599338,N,01620.698157,E,1,8,0.91,168.228,M,43.448,M,,*59
236$GPGSA,A,3,14,20,03,28,19,11,22,01,,,,,1.90,0.91,1.66*04
237$GPRMC,161046.000,A,4818.599338,N,01620.698157,E,60.213,183.89,261207,,,A*6E
238$GPVTG,183.89,T,,M,60.213,N,111.575,K,A*06
239$GPGGA,161047.000,4818.582954,N,01620.696650,E,1,8,0.91,168.411,M,43.448,M,,*50
240$GPGSA,A,3,14,20,03,28,19,11,22,01,,,,,1.90,0.91,1.66*04
241$GPRMC,161047.000,A,4818.582954,N,01620.696650,E,59.027,183.49,261207,,,A*68
242$GPVTG,183.49,T,,M,59.027,N,109.377,K,A*08
243$GPGGA,161048.000,4818.566647,N,01620.695127,E,1,8,0.91,168.358,M,43.448,M,,*56
244$GPGSA,A,3,14,20,03,28,19,11,22,01,,,,,1.90,0.91,1.66*04
245$GPRMC,161048.000,A,4818.566647,N,01620.695127,E,57.857,183.25,261207,,,A*6F
246$GPVTG,183.25,T,,M,57.857,N,107.209,K,A*05
247$GPGGA,161049.000,4818.550721,N,01620.694075,E,1,8,0.91,168.764,M,43.448,M,,*5F
248$GPGSA,A,3,14,20,03,28,19,11,22,01,,,,,1.90,0.91,1.66*04
249$GPGSV,3,1,10,11,56,291,46,01,51,121,43,19,47,181,40,14,45,071,45*75
250$GPGSV,3,2,10,20,24,242,35,22,22,060,42,03,17,170,35,28,16,299,39*7F
251$GPGSV,3,3,10,17,04,324,29,09,03,017,39*72
252$GPRMC,161049.000,A,4818.550721,N,01620.694075,E,56.651,182.16,261207,,,A*65
253$GPVTG,182.16,T,,M,56.651,N,104.975,K,A*0E
254$GPGGA,161050.000,4818.535096,N,01620.693461,E,1,8,0.91,168.533,M,43.447,M,,*56
255$GPGSA,A,3,14,20,03,28,19,11,22,01,,,,,1.90,0.91,1.66*04
256$GPRMC,161050.000,A,4818.535096,N,01620.693461,E,55.517,181.30,261207,,,A*66
257$GPVTG,181.30,T,,M,55.517,N,102.873,K,A*0A
258$GPGGA,161051.000,4818.519699,N,01620.693068,E,1,8,0.91,168.340,M,43.447,M,,*5F
259$GPGSA,A,3,14,20,03,28,19,11,22,01,,,,,1.90,0.91,1.66*04
260$GPRMC,161051.000,A,4818.519699,N,01620.693068,E,54.926,180.60,261207,,,A*66
261$GPVTG,180.60,T,,M,54.926,N,101.777,K,A*09
262$GPGGA,161052.000,4818.504543,N,01620.692848,E,1,8,0.91,168.765,M,43.447,M,,*5C
263$GPGSA,A,3,14,20,03,28,19,11,22,01,,,,,1.90,0.91,1.66*04
264$GPRMC,161052.000,A,4818.504543,N,01620.692848,E,54.424,179.83,261207,,,A*62
265$GPVTG,179.83,T,,M,54.424,N,100.848,K,A*0F
266$GPGGA,161053.000,4818.489539,N,01620.693145,E,1,7,1.18,168.807,M,43.447,M,,*55
267$GPGSA,A,3,14,20,28,19,11,22,01,,,,,,2.44,1.18,2.14*0B
268$GPRMC,161053.000,A,4818.489539,N,01620.693145,E,54.002,178.97,261207,,,A*6B
269$GPVTG,178.97,T,,M,54.002,N,100.065,K,A*0C
270$GPGGA,161054.000,4818.474603,N,01620.693918,E,1,8,0.91,168.877,M,43.447,M,,*52
271$GPGSA,A,3,14,20,03,28,19,11,22,01,,,,,1.90,0.91,1.66*04
272$GPGSV,3,1,10,11,56,291,46,01,51,121,43,19,47,181,39,14,45,071,44*7A
273$GPGSV,3,2,10,20,24,242,32,22,22,060,39,03,17,170,24,28,16,299,35*78
274$GPGSV,3,3,10,17,04,324,26,09,03,017,32*76
275$GPRMC,161054.000,A,4818.474603,N,01620.693918,E,53.884,177.92,261207,,,A*6F
276$GPVTG,177.92,T,,M,53.884,N,99.847,K,A*3E
277$GPGGA,161055.000,4818.459687,N,01620.695095,E,1,8,0.91,168.262,M,43.447,M,,*54
278$GPGSA,A,3,14,20,03,28,19,11,22,01,,,,,1.90,0.91,1.66*04
279$GPRMC,161055.000,A,4818.459687,N,01620.695095,E,54.597,175.82,261207,,,A*6C
280$GPVTG,175.82,T,,M,54.597,N,101.169,K,A*00
281$GPGGA,161056.000,4818.444558,N,01620.697053,E,1,8,0.91,168.267,M,43.447,M,,*57
282$GPGSA,A,3,14,20,03,28,19,11,22,01,,,,,1.90,0.91,1.66*04
283$GPRMC,161056.000,A,4818.444558,N,01620.697053,E,54.843,174.22,261207,,,A*65
284$GPVTG,174.22,T,,M,54.843,N,101.625,K,A*00
285$GPGGA,161057.000,4818.429345,N,01620.699638,E,1,8,0.91,167.958,M,43.447,M,,*5A
286$GPGSA,A,3,14,20,03,28,19,11,22,01,,,,,1.90,0.91,1.66*04
287$GPRMC,161057.000,A,4818.429345,N,01620.699638,E,56.078,173.44,261207,,,A*65
288$GPVTG,173.44,T,,M,56.078,N,103.912,K,A*0C
289$GPGGA,161058.000,4818.413713,N,01620.702309,E,1,8,0.91,167.770,M,43.446,M,,*5A
290$GPGSA,A,3,14,20,03,28,19,11,22,01,,,,,1.90,0.91,1.66*04
291$GPRMC,161058.000,A,4818.413713,N,01620.702309,E,56.462,173.44,261207,,,A*6F
292$GPVTG,173.44,T,,M,56.462,N,104.624,K,A*0E
293$GPGGA,161059.000,4818.397975,N,01620.704817,E,1,8,0.91,168.164,M,43.446,M,,*50
294$GPGSA,A,3,14,20,03,28,19,11,22,01,,,,,1.90,0.91,1.66*04
295$GPGSV,3,1,10,11,56,291,46,01,51,121,43,19,47,181,39,14,45,071,44*7A
296$GPGSV,3,2,10,20,24,242,26,22,22,060,41,03,17,170,31,28,16,299,25*77
297$GPGSV,3,3,10,17,04,324,28,09,03,017,31*7B
298$GPRMC,161059.000,A,4818.397975,N,01620.704817,E,56.783,173.11,261207,,,A*65
299$GPVTG,173.11,T,,M,56.783,N,105.219,K,A*09
300$GPGGA,161100.000,4818.382424,N,01620.707899,E,1,7,1.11,167.865,M,43.446,M,,*54
301$GPGSA,A,3,14,20,03,19,11,22,01,,,,,,2.21,1.11,1.91*06
302$GPRMC,161100.000,A,4818.382424,N,01620.707899,E,57.261,172.32,261207,,,A*68
303$GPVTG,172.32,T,,M,57.261,N,106.105,K,A*0C
304$GPGGA,161101.000,4818.366772,N,01620.711223,E,1,7,1.11,167.964,M,43.446,M,,*53
305$GPGSA,A,3,14,20,03,19,11,22,01,,,,,,2.21,1.11,1.91*06
306$GPRMC,161101.000,A,4818.366772,N,01620.711223,E,57.263,170.97,261207,,,A*60
307$GPVTG,170.97,T,,M,57.263,N,106.109,K,A*0F
308$GPGGA,161102.000,4818.351208,N,01620.715178,E,1,8,0.91,167.817,M,43.446,M,,*56
309$GPGSA,A,3,14,20,03,28,19,11,22,01,,,,,1.90,0.91,1.66*04
310$GPRMC,161102.000,A,4818.351208,N,01620.715178,E,56.929,169.59,261207,,,A*68
311$GPVTG,169.59,T,,M,56.929,N,105.490,K,A*07
312$GPGGA,161103.000,4818.335812,N,01620.719661,E,1,7,1.11,167.243,M,43.446,M,,*5A
313$GPGSA,A,3,14,20,03,19,11,22,01,,,,,,2.21,1.11,1.91*06
314$GPRMC,161103.000,A,4818.335812,N,01620.719661,E,56.828,168.51,261207,,,A*60
315$GPVTG,168.51,T,,M,56.828,N,105.302,K,A*02
316$GPGGA,161104.000,4818.320367,N,01620.724748,E,1,8,0.91,167.795,M,43.446,M,,*5C
317$GPGSA,A,3,14,20,03,28,19,11,22,01,,,,,1.89,0.91,1.66*0C
318$GPGSV,3,1,10,11,56,291,46,01,51,121,43,19,47,181,40,14,45,071,44*74
319$GPGSV,3,2,10,20,24,243,32,22,22,060,42,03,17,170,34,28,16,299,22*72
320$GPGSV,3,3,10,17,04,324,35,09,03,017,26*71
321$GPRMC,161104.000,A,4818.320367,N,01620.724748,E,57.217,167.46,261207,,,A*60
322$GPVTG,167.46,T,,M,57.217,N,106.022,K,A*0E
323$GPGGA,161105.000,4818.304843,N,01620.730036,E,1,8,0.91,168.042,M,43.445,M,,*5C
324$GPGSA,A,3,14,20,03,28,19,11,22,01,,,,,1.89,0.91,1.66*0C
325$GPRMC,161105.000,A,4818.304843,N,01620.730036,E,57.768,166.57,261207,,,A*6D
326$GPVTG,166.57,T,,M,57.768,N,107.045,K,A*02
327$GPGGA,161106.000,4818.289064,N,01620.736155,E,1,8,0.91,167.892,M,43.445,M,,*5E
328$GPGSA,A,3,14,20,03,28,19,11,22,01,,,,,1.89,0.91,1.66*0C
329$GPRMC,161106.000,A,4818.289064,N,01620.736155,E,58.014,165.47,261207,,,A*64
330$GPVTG,165.47,T,,M,58.014,N,107.500,K,A*07
331$GPGGA,161107.000,4818.273492,N,01620.742817,E,1,8,0.91,168.351,M,43.445,M,,*50
332$GPGSA,A,3,14,20,03,28,19,11,22,01,,,,,1.89,0.91,1.66*0C
333$GPRMC,161107.000,A,4818.273492,N,01620.742817,E,58.134,163.98,261207,,,A*66
334$GPVTG,163.98,T,,M,58.134,N,107.723,K,A*03
335$GPGGA,161108.000,4818.258138,N,01620.749586,E,1,8,0.91,168.276,M,43.445,M,,*59
336$GPGSA,A,3,14,20,03,28,19,11,22,01,,,,,1.89,0.91,1.66*0C
337$GPRMC,161108.000,A,4818.258138,N,01620.749586,E,58.329,162.64,261207,,,A*67
338$GPVTG,162.64,T,,M,58.329,N,108.084,K,A*0A
339$GPGGA,161109.000,4818.242680,N,01620.757378,E,1,8,0.91,168.125,M,43.444,M,,*5B
340$GPGSA,A,3,14,20,03,28,19,11,22,01,,,,,1.89,0.91,1.66*0C
341$GPGSV,3,1,10,11,56,291,45,01,51,121,43,19,47,181,41,14,45,071,44*76
342$GPGSV,3,2,10,20,24,243,36,22,22,060,42,03,17,170,33,28,16,299,39*7B
343$GPGSV,3,3,10,17,04,324,37,09,03,017,28*7D
344$GPRMC,161109.000,A,4818.242680,N,01620.757378,E,58.346,161.60,261207,,,A*6F
345$GPVTG,161.60,T,,M,58.346,N,108.116,K,A*0E
346$GPGGA,161110.000,4818.227374,N,01620.765120,E,1,8,0.91,167.596,M,43.444,M,,*53
347$GPGSA,A,3,14,20,03,28,19,11,22,01,,,,,1.89,0.91,1.66*0C
348$GPRMC,161110.000,A,4818.227374,N,01620.765120,E,58.251,161.00,261207,,,A*65
349$GPVTG,161.00,T,,M,58.251,N,107.940,K,A*0B
350$GPGGA,161111.000,4818.212270,N,01620.773359,E,1,8,0.91,167.492,M,43.444,M,,*5F
351$GPGSA,A,3,14,20,03,28,19,11,22,01,,,,,1.89,0.91,1.66*0C
352$GPRMC,161111.000,A,4818.212270,N,01620.773359,E,58.142,159.71,261207,,,A*60
353$GPVTG,159.71,T,,M,58.142,N,107.738,K,A*06
354$GPGGA,161112.000,4818.197035,N,01620.781992,E,1,8,0.91,167.049,M,43.444,M,,*53
355$GPGSA,A,3,14,20,03,28,19,11,22,01,,,,,1.89,0.91,1.66*0C
356$GPRMC,161112.000,A,4818.197035,N,01620.781992,E,58.833,158.51,261207,,,A*62
357$GPVTG,158.51,T,,M,58.833,N,109.018,K,A*01
358$GPGGA,161113.000,4818.181871,N,01620.791295,E,1,8,0.91,166.677,M,43.444,M,,*5A
359$GPGSA,A,3,14,20,03,28,19,11,22,01,,,,,1.89,0.91,1.66*0C
360$GPRMC,161113.000,A,4818.181871,N,01620.791295,E,59.161,157.46,261207,,,A*67
361$GPVTG,157.46,T,,M,59.161,N,109.625,K,A*0F
362$GPGGA,161114.000,4818.166720,N,01620.801003,E,1,8,0.91,166.868,M,43.443,M,,*53
363$GPGSA,A,3,14,20,03,28,19,11,22,01,,,,,1.89,0.91,1.66*0C
364$GPGSV,3,1,10,11,56,291,45,01,51,121,40,19,47,181,43,14,45,071,44*77
365$GPGSV,3,2,10,20,24,243,38,22,22,060,41,03,17,170,34,28,16,299,41*7E
366$GPGSV,3,3,10,17,04,324,36,09,03,017,27*73
367$GPRMC,161114.000,A,4818.166720,N,01620.801003,E,59.472,156.09,261207,,,A*64
368$GPVTG,156.09,T,,M,59.472,N,110.202,K,A*0B
369$GPGGA,161115.000,4818.151826,N,01620.811015,E,1,8,0.91,167.403,M,43.443,M,,*59
370$GPGSA,A,3,14,20,03,28,19,11,22,01,,,,,1.89,0.91,1.66*0C
371$GPRMC,161115.000,A,4818.151826,N,01620.811015,E,59.616,155.13,261207,,,A*66
372$GPVTG,155.13,T,,M,59.616,N,110.468,K,A*09
373$GPGGA,161116.000,4818.136801,N,01620.821872,E,1,8,0.91,167.048,M,43.443,M,,*5F
374$GPGSA,A,3,14,20,03,28,19,11,22,01,,,,,1.89,0.91,1.66*0C
375$GPRMC,161116.000,A,4818.136801,N,01620.821872,E,59.773,153.84,261207,,,A*61
376$GPVTG,153.84,T,,M,59.773,N,110.759,K,A*02
377$GPGGA,161117.000,4818.122061,N,01620.832818,E,1,8,0.91,167.793,M,43.443,M,,*5A
378$GPGSA,A,3,14,20,03,28,19,11,22,01,,,,,1.89,0.91,1.66*0C
379$GPRMC,161117.000,A,4818.122061,N,01620.832818,E,59.855,152.81,261207,,,A*6A
380$GPVTG,152.81,T,,M,59.855,N,110.911,K,A*0F
381$GPGGA,161118.000,4818.107416,N,01620.844508,E,1,8,0.91,168.242,M,43.442,M,,*5C
382$GPGSA,A,3,14,20,03,28,19,11,22,01,,,,,1.89,0.91,1.66*0C
383$GPRMC,161118.000,A,4818.107416,N,01620.844508,E,59.749,151.89,261207,,,A*62
384$GPVTG,151.89,T,,M,59.749,N,110.715,K,A*0C
385$GPGGA,161119.000,4818.092775,N,01620.856401,E,1,8,0.91,168.497,M,43.442,M,,*53
386$GPGSA,A,3,14,20,03,28,19,11,22,01,,,,,1.89,0.91,1.66*0C
387$GPGSV,3,1,10,11,56,291,43,01,51,121,40,19,47,181,39,14,45,071,44*7C
388$GPGSV,3,2,10,20,24,243,40,22,22,060,43,03,17,170,36,28,16,299,39*7E
389$GPGSV,3,3,10,17,04,324,32,09,03,017,27*77
390$GPRMC,161119.000,A,4818.092775,N,01620.856401,E,59.774,150.81,261207,,,A*64
391$GPVTG,150.81,T,,M,59.774,N,110.761,K,A*08
392$GPGGA,161120.000,4818.078334,N,01620.868648,E,1,8,0.91,168.372,M,43.442,M,,*52
393$GPGSA,A,3,14,20,03,28,19,11,22,01,,,,,1.89,0.91,1.65*0F
394$GPRMC,161120.000,A,4818.078334,N,01620.868648,E,59.447,150.20,261207,,,A*61
395$GPVTG,150.20,T,,M,59.447,N,110.154,K,A*00
396$GPGGA,161121.000,4818.063976,N,01620.880944,E,1,8,0.91,168.976,M,43.441,M,,*5D
397$GPGSA,A,3,14,20,03,28,19,11,22,01,,,,,1.89,0.91,1.65*0F
398$GPRMC,161121.000,A,4818.063976,N,01620.880944,E,59.336,149.75,261207,,,A*6A
399$GPVTG,149.75,T,,M,59.336,N,109.949,K,A*05
400$GPGGA,161122.000,4818.049792,N,01620.893710,E,1,8,0.91,168.557,M,43.441,M,,*50
401$GPGSA,A,3,14,20,03,28,19,11,22,01,,,,,1.89,0.91,1.65*0F
402$GPRMC,161122.000,A,4818.049792,N,01620.893710,E,59.328,149.18,261207,,,A*6C
403$GPVTG,149.18,T,,M,59.328,N,109.935,K,A*0A
404$GPGGA,161123.000,4818.035736,N,01620.906498,E,1,8,0.91,168.330,M,43.441,M,,*5D
405$GPGSA,A,3,14,20,03,28,19,11,22,01,,,,,1.89,0.91,1.65*0F
406$GPRMC,161123.000,A,4818.035736,N,01620.906498,E,59.425,148.64,261207,,,A*66
407$GPVTG,148.64,T,,M,59.425,N,110.114,K,A*09
408$GPGGA,161124.000,4818.021779,N,01620.919772,E,1,8,0.91,168.329,M,43.441,M,,*55
409$GPGSA,A,3,14,20,03,28,19,11,22,01,,,,,1.89,0.91,1.65*0F
410$GPGSV,3,1,10,11,56,291,43,01,51,121,41,19,47,181,38,14,45,071,45*7D
411$GPGSV,3,2,10,20,24,243,41,22,22,060,41,03,17,170,34,28,16,299,39*7F
412$GPGSV,3,3,10,17,04,324,38,09,03,017,17*7E
413$GPRMC,161124.000,A,4818.021779,N,01620.919772,E,58.735,147.67,261207,,,A*69
414$GPVTG,147.67,T,,M,58.735,N,108.836,K,A*06
415$GPGGA,161125.000,4818.007880,N,01620.932924,E,1,8,0.91,168.390,M,43.440,M,,*5E
416$GPGSA,A,3,14,20,03,28,19,11,22,01,,,,,1.89,0.91,1.65*0F
417$GPRMC,161125.000,A,4818.007880,N,01620.932924,E,58.135,147.27,261207,,,A*63
418$GPVTG,147.27,T,,M,58.135,N,107.724,K,A*07
419$GPGGA,161126.000,4817.994219,N,01620.946138,E,1,8,0.91,168.301,M,43.440,M,,*55
420$GPGSA,A,3,14,20,03,28,19,11,22,01,,,,,1.89,0.91,1.65*0F
421$GPRMC,161126.000,A,4817.994219,N,01620.946138,E,57.748,147.36,261207,,,A*63
422$GPVTG,147.36,T,,M,57.748,N,107.006,K,A*03
423$GPGGA,161127.000,4817.980868,N,01620.959211,E,1,8,0.91,168.436,M,43.440,M,,*58
424$GPGSA,A,3,14,20,03,28,19,11,22,01,,,,,1.89,0.91,1.65*0F
425$GPRMC,161127.000,A,4817.980868,N,01620.959211,E,57.520,146.17,261207,,,A*63
426$GPVTG,146.17,T,,M,57.520,N,106.585,K,A*02
427$GPGGA,161128.000,4817.967722,N,01620.972881,E,1,8,0.91,167.944,M,43.439,M,,*5C
428$GPGSA,A,3,14,20,03,28,19,11,22,01,,,,,1.89,0.91,1.65*0F
429$GPRMC,161128.000,A,4817.967722,N,01620.972881,E,57.826,144.91,261207,,,A*69
430$GPVTG,144.91,T,,M,57.826,N,107.151,K,A*09
431$GPGGA,161129.000,4817.954583,N,01620.986757,E,1,8,0.91,168.299,M,43.439,M,,*5F
432$GPGSA,A,3,14,20,03,28,19,11,22,01,,,,,1.89,0.91,1.65*0F
433$GPGSV,3,1,10,11,56,291,44,01,51,121,40,19,47,181,38,14,45,070,43*7C
434$GPGSV,3,2,10,20,24,243,42,22,22,060,41,03,17,170,31,28,16,299,40*77
435$GPGSV,3,3,10,17,04,324,38,09,03,017,15*7C
436$GPRMC,161129.000,A,4817.954583,N,01620.986757,E,58.050,144.85,261207,,,A*6D
437$GPVTG,144.85,T,,M,58.050,N,107.566,K,A*0A
438$GPGGA,161130.000,4817.941291,N,01621.000774,E,1,8,0.91,168.560,M,43.439,M,,*51
439$GPGSA,A,3,14,20,03,28,19,11,22,01,,,,,1.89,0.91,1.65*0F
440$GPRMC,161130.000,A,4817.941291,N,01621.000774,E,58.869,145.66,261207,,,A*6C
441$GPVTG,145.66,T,,M,58.869,N,109.084,K,A*03
442$GPGGA,161131.000,4817.927608,N,01621.014257,E,1,8,0.91,168.305,M,43.438,M,,*51
443$GPGSA,A,3,14,20,03,28,19,11,22,01,,,,,1.89,0.91,1.65*0F
444$GPRMC,161131.000,A,4817.927608,N,01621.014257,E,59.295,147.09,261207,,,A*6B
445$GPVTG,147.09,T,,M,59.295,N,109.874,K,A*07
446$GPGGA,161132.000,4817.913582,N,01621.027714,E,1,8,0.91,168.471,M,43.438,M,,*52
447$GPGSA,A,3,14,20,03,28,19,11,22,01,,,,,1.89,0.91,1.65*0F
448$GPRMC,161132.000,A,4817.913582,N,01621.027714,E,59.484,147.28,261207,,,A*69
449$GPVTG,147.28,T,,M,59.484,N,110.223,K,A*02
450$GPGGA,161133.000,4817.899708,N,01621.040990,E,1,8,0.91,168.831,M,43.438,M,,*5B
451$GPGSA,A,3,14,20,03,28,19,11,22,01,,,,,1.89,0.91,1.65*0F
452$GPRMC,161133.000,A,4817.899708,N,01621.040990,E,59.593,147.44,261207,,,A*65
453$GPVTG,147.44,T,,M,59.593,N,110.426,K,A*0C
454$GPGGA,161134.000,4817.885669,N,01621.054296,E,1,8,0.91,168.753,M,43.438,M,,*54
455$GPGSA,A,3,14,20,03,28,19,11,22,01,,,,,1.89,0.91,1.65*0F
456$GPGSV,3,1,10,11,56,291,44,01,51,121,41,19,47,181,38,14,45,070,46*78
457$GPGSV,3,2,10,20,24,243,43,22,22,060,43,03,17,170,32,28,16,299,40*77
458$GPGSV,3,3,10,17,04,324,39,09,03,017,*79
459$GPRMC,161134.000,A,4817.885669,N,01621.054296,E,59.716,147.76,261207,,,A*6F
460$GPVTG,147.76,T,,M,59.716,N,110.653,K,A*02
461$GPGGA,161135.000,4817.871498,N,01621.067645,E,1,8,0.91,168.656,M,43.437,M,,*53
462$GPGSA,A,3,14,20,03,28,19,11,22,01,,,,,1.89,0.91,1.65*0F
463$GPRMC,161135.000,A,4817.871498,N,01621.067645,E,59.815,148.03,261207,,,A*62
464$GPVTG,148.03,T,,M,59.815,N,110.837,K,A*0F
465$GPGGA,161136.000,4817.857255,N,01621.080930,E,1,8,0.91,168.502,M,43.437,M,,*55
466$GPGSA,A,3,14,20,03,28,19,11,22,01,,,,,1.89,0.91,1.65*0F
467$GPRMC,161136.000,A,4817.857255,N,01621.080930,E,59.621,147.70,261207,,,A*64
468$GPVTG,147.70,T,,M,59.621,N,110.477,K,A*05
469$GPGGA,161137.000,4817.843357,N,01621.094100,E,1,8,0.91,168.157,M,43.437,M,,*58
470$GPGSA,A,3,14,20,03,28,19,11,22,01,,,,,1.89,0.91,1.65*0F
471$GPRMC,161137.000,A,4817.843357,N,01621.094100,E,59.579,148.28,261207,,,A*61
472$GPVTG,148.28,T,,M,59.579,N,110.400,K,A*09
473$GPGGA,161138.000,4817.829279,N,01621.107046,E,1,8,0.91,167.828,M,43.436,M,,*51
474$GPGSA,A,3,14,20,03,28,19,11,22,01,,,,,1.89,0.91,1.65*0F
475$GPRMC,161138.000,A,4817.829279,N,01621.107046,E,59.316,148.32,261207,,,A*63
476$GPVTG,148.32,T,,M,59.316,N,109.912,K,A*0B
477$GPGGA,161139.000,4817.815110,N,01621.119820,E,1,8,0.91,167.830,M,43.436,M,,*5D
478$GPGSA,A,3,14,20,03,28,19,11,22,01,,,,,1.89,0.91,1.65*0F
479$GPGSV,3,1,10,11,56,291,44,01,51,121,40,19,47,181,38,14,45,070,45*7A
480$GPGSV,3,2,10,20,24,243,43,22,22,060,43,03,17,170,36,28,16,299,39*7D
481$GPGSV,3,3,10,17,04,324,38,09,03,017,*78
482$GPRMC,161139.000,A,4817.815110,N,01621.119820,E,59.381,148.77,261207,,,A*69
483$GPVTG,148.77,T,,M,59.381,N,110.034,K,A*01
484$GPGGA,161140.000,4817.800880,N,01621.132618,E,1,8,0.91,168.011,M,43.436,M,,*5F
485$GPGSA,A,3,14,20,03,28,19,11,22,01,,,,,1.88,0.91,1.65*0E
486$GPRMC,161140.000,A,4817.800880,N,01621.132618,E,59.883,149.02,261207,,,A*65
487$GPVTG,149.02,T,,M,59.883,N,110.962,K,A*01
488$GPGGA,161141.000,4817.786460,N,01621.145426,E,1,8,0.91,167.791,M,43.435,M,,*51
489$GPGSA,A,3,14,20,03,28,19,11,22,01,,,,,1.88,0.91,1.65*0E
490$GPRMC,161141.000,A,4817.786460,N,01621.145426,E,60.165,149.14,261207,,,A*64
491$GPVTG,149.14,T,,M,60.165,N,111.485,K,A*08
492$GPGGA,161142.000,4817.772032,N,01621.158431,E,1,8,0.91,167.489,M,43.435,M,,*5A
493$GPGSA,A,3,14,20,03,28,19,11,22,01,,,,,1.88,0.91,1.65*0E
494$GPRMC,161142.000,A,4817.772032,N,01621.158431,E,60.503,149.72,261207,,,A*61
495$GPVTG,149.72,T,,M,60.503,N,112.111,K,A*07
496$GPGGA,161143.000,4817.757647,N,01621.170941,E,1,8,0.91,167.408,M,43.435,M,,*51
497$GPGSA,A,3,14,20,03,28,19,11,22,01,,,,,1.88,0.91,1.65*0E
498$GPRMC,161143.000,A,4817.757647,N,01621.170941,E,60.640,150.09,261207,,,A*63
499$GPVTG,150.09,T,,M,60.640,N,112.366,K,A*05
500$GPGGA,161144.000,4817.743090,N,01621.183413,E,1,8,0.91,167.324,M,43.435,M,,*50
501$GPGSA,A,3,14,20,03,28,19,11,22,01,,,,,1.88,0.91,1.65*0E
502$GPGSV,3,1,10,11,56,291,44,01,51,121,39,19,47,181,38,14,45,070,45*74
503$GPGSV,3,2,10,20,24,243,43,22,22,060,40,03,17,170,39,28,16,299,39*71
504$GPGSV,3,3,10,17,04,324,37,09,03,017,*77
505$GPRMC,161144.000,A,4817.743090,N,01621.183413,E,60.674,150.18,261207,,,A*6C
506$GPVTG,150.18,T,,M,60.674,N,112.430,K,A*06
507$GPGGA,161145.000,4817.728474,N,01621.195823,E,1,8,0.91,167.510,M,43.434,M,,*5A
508$GPGSA,A,3,14,20,03,28,19,11,22,01,,,,,1.88,0.91,1.65*0E
509$GPRMC,161145.000,A,4817.728474,N,01621.195823,E,60.763,150.38,261207,,,A*63
510$GPVTG,150.38,T,,M,60.763,N,112.594,K,A*0C
511$GPGGA,161146.000,4817.713898,N,01621.208046,E,1,8,0.91,167.623,M,43.434,M,,*50
512$GPGSA,A,3,14,20,03,28,19,11,22,01,,,,,1.88,0.91,1.65*0E
513$GPRMC,161146.000,A,4817.713898,N,01621.208046,E,60.733,150.90,261207,,,A*6D
514$GPVTG,150.90,T,,M,60.733,N,112.539,K,A*0C
515$GPGGA,161147.000,4817.699248,N,01621.220176,E,1,8,0.91,167.336,M,43.434,M,,*5C
516$GPGSA,A,3,14,20,03,28,19,11,22,01,,,,,1.88,0.91,1.65*0E
517$GPRMC,161147.000,A,4817.699248,N,01621.220176,E,60.552,151.40,261207,,,A*69
518$GPVTG,151.40,T,,M,60.552,N,112.203,K,A*0B
519$GPGGA,161148.000,4817.684485,N,01621.232432,E,1,8,0.91,166.919,M,43.433,M,,*5F
520$GPGSA,A,3,14,20,03,28,19,11,22,01,,,,,1.88,0.91,1.65*0E
521$GPRMC,161148.000,A,4817.684485,N,01621.232432,E,60.597,151.81,261207,,,A*6F
522$GPVTG,151.81,T,,M,60.597,N,112.285,K,A*01
523$GPGGA,161149.000,4817.669551,N,01621.244422,E,1,8,0.91,166.506,M,43.433,M,,*57
524$GPGSA,A,3,14,20,03,28,19,11,22,01,,,,,1.88,0.91,1.65*0E
525$GPGSV,3,1,10,11,56,291,42,01,51,120,37,19,47,181,38,14,45,070,43*7B
526$GPGSV,3,2,10,20,24,243,43,22,22,060,40,03,17,170,39,28,16,299,39*71
527$GPGSV,3,3,10,17,04,324,28,09,03,017,*79
528$GPRMC,161149.000,A,4817.669551,N,01621.244422,E,60.385,151.89,261207,,,A*68
529$GPVTG,151.89,T,,M,60.385,N,111.893,K,A*02
530$GPGGA,161150.000,4817.654827,N,01621.256060,E,1,8,0.91,166.922,M,43.433,M,,*56
531$GPGSA,A,3,14,20,03,28,19,11,22,01,,,,,1.88,0.91,1.65*0E
532$GPRMC,161150.000,A,4817.654827,N,01621.256060,E,60.324,151.93,261207,,,A*63
533$GPVTG,151.93,T,,M,60.324,N,111.780,K,A*0F
534$GPGGA,161151.000,4817.640093,N,01621.267646,E,1,8,0.91,167.194,M,43.433,M,,*51
535$GPGSA,A,3,14,20,03,28,19,11,22,01,,,,,1.88,0.91,1.65*0E
536$GPRMC,161151.000,A,4817.640093,N,01621.267646,E,60.082,152.29,261207,,,A*6D
537$GPVTG,152.29,T,,M,60.082,N,111.332,K,A*0F
538$GPGGA,161152.000,4817.625348,N,01621.279073,E,1,8,0.91,167.283,M,43.432,M,,*5F
539$GPGSA,A,3,14,20,03,28,19,11,22,01,,,,,1.88,0.91,1.65*0E
540$GPRMC,161152.000,A,4817.625348,N,01621.279073,E,60.193,152.46,261207,,,A*6F
541$GPVTG,152.46,T,,M,60.193,N,111.537,K,A*04
542$GPGGA,161153.000,4817.610771,N,01621.290650,E,1,8,0.91,167.456,M,43.432,M,,*58
543$GPGSA,A,3,14,20,03,28,19,11,22,01,,,,,1.88,0.91,1.65*0E
544$GPRMC,161153.000,A,4817.610771,N,01621.290650,E,59.805,152.49,261207,,,A*65
545$GPVTG,152.49,T,,M,59.805,N,110.819,K,A*07
546$GPGGA,161154.000,4817.596138,N,01621.301702,E,1,8,0.91,167.160,M,43.432,M,,*56
547$GPGSA,A,3,14,20,03,28,19,11,22,01,,,,,1.88,0.91,1.64*0F
548$GPGSV,3,1,10,11,56,291,42,01,51,120,37,19,47,181,39,14,45,070,43*7A
549$GPGSV,3,2,10,20,24,243,42,22,22,060,40,03,16,170,40,28,16,299,39*7F
550$GPGSV,3,3,10,17,04,324,33,09,03,017,*73
551$GPRMC,161154.000,A,4817.596138,N,01621.301702,E,59.826,153.06,261207,,,A*60
552$GPVTG,153.06,T,,M,59.826,N,110.857,K,A*06
553$GPGGA,161155.000,4817.581406,N,01621.313138,E,1,8,0.91,167.017,M,43.432,M,,*54
554$GPGSA,A,3,14,20,03,28,19,11,22,01,,,,,1.88,0.91,1.64*0F
555$GPRMC,161155.000,A,4817.581406,N,01621.313138,E,59.777,153.00,261207,,,A*6E
556$GPVTG,153.00,T,,M,59.777,N,110.767,K,A*07
557$GPGGA,161156.000,4817.566585,N,01621.324425,E,1,8,0.91,167.115,M,43.431,M,,*59
558$GPGSA,A,3,14,20,03,28,19,11,22,01,,,,,1.88,0.91,1.64*0F
559$GPRMC,161156.000,A,4817.566585,N,01621.324425,E,59.676,153.13,261207,,,A*61
560$GPVTG,153.13,T,,M,59.676,N,110.579,K,A*08
561$GPGGA,161157.000,4817.551603,N,01621.335478,E,1,8,0.91,167.442,M,43.431,M,,*5E
562$GPGSA,A,3,14,20,03,28,19,11,22,01,,,,,1.88,0.91,1.64*0F
563$GPRMC,161157.000,A,4817.551603,N,01621.335478,E,59.483,153.49,261207,,,A*66
564$GPVTG,153.49,T,,M,59.483,N,110.222,K,A*06
565$GPGGA,161158.000,4817.536654,N,01621.346710,E,1,8,0.91,167.398,M,43.431,M,,*5B
566$GPGSA,A,3,14,20,03,28,19,11,22,01,,,,,1.88,0.91,1.64*0F
567$GPRMC,161158.000,A,4817.536654,N,01621.346710,E,59.631,153.28,261207,,,A*6F
568$GPVTG,153.28,T,,M,59.631,N,110.495,K,A*00
569$GPGGA,161159.000,4817.521704,N,01621.357592,E,1,8,0.91,167.843,M,43.430,M,,*5C
570$GPGSA,A,3,14,20,03,28,19,11,22,01,,,,,1.88,0.91,1.64*0F
571$GPGSV,3,1,10,11,56,291,43,01,51,120,37,19,47,181,40,14,45,070,43*75
572$GPGSV,3,2,10,20,24,243,39,22,22,060,39,03,16,170,38,28,16,299,37*7C
573$GPGSV,3,3,10,17,04,324,23,09,03,017,*72
574$GPRMC,161159.000,A,4817.521704,N,01621.357592,E,59.614,153.30,261207,,,A*6A
575$GPVTG,153.30,T,,M,59.614,N,110.465,K,A*01
576$GPGGA,161200.000,4817.506770,N,01621.368957,E,1,8,0.91,167.940,M,43.430,M,,*5E
577$GPGSA,A,3,14,20,03,28,19,11,22,01,,,,,1.88,0.91,1.64*0F
578$GPRMC,161200.000,A,4817.506770,N,01621.368957,E,59.637,152.88,261207,,,A*69
579$GPVTG,152.88,T,,M,59.637,N,110.506,K,A*06
580$GPGGA,161201.000,4817.492008,N,01621.380275,E,1,8,0.91,167.653,M,43.430,M,,*5B
581$GPGSA,A,3,14,20,03,28,19,11,22,01,,,,,1.88,0.91,1.64*0F
582$GPRMC,161201.000,A,4817.492008,N,01621.380275,E,59.733,152.80,261207,,,A*6C
583$GPVTG,152.80,T,,M,59.733,N,110.685,K,A*03
584$GPGGA,161202.000,4817.477391,N,01621.391777,E,1,8,0.91,167.633,M,43.430,M,,*51
585$GPGSA,A,3,14,20,03,28,19,11,22,01,,,,,1.88,0.91,1.64*0F
586$GPRMC,161202.000,A,4817.477391,N,01621.391777,E,59.988,152.32,261207,,,A*67
587$GPVTG,152.32,T,,M,59.988,N,111.158,K,A*02
588$GPGGA,161203.000,4817.462767,N,01621.403229,E,1,8,0.91,167.189,M,43.429,M,,*55
589$GPGSA,A,3,14,20,03,28,19,11,22,01,,,,,1.88,0.91,1.64*0F
590$GPRMC,161203.000,A,4817.462767,N,01621.403229,E,60.359,152.24,261207,,,A*66
591$GPVTG,152.24,T,,M,60.359,N,111.846,K,A*0F
592$GPGGA,161204.000,4817.447858,N,01621.415130,E,1,8,0.91,166.915,M,43.429,M,,*56
593$GPGSA,A,3,14,20,03,28,19,11,22,01,,,,,1.88,0.91,1.64*0F
594$GPGSV,3,1,10,11,56,291,42,01,51,120,36,19,47,181,40,14,45,070,42*74
595$GPGSV,3,2,10,20,24,243,40,22,22,060,39,03,16,170,38,28,16,299,35*70
596$GPGSV,3,3,10,17,04,324,23,09,03,017,*72
597$GPRMC,161204.000,A,4817.447858,N,01621.415130,E,60.628,152.14,261207,,,A*69
598$GPVTG,152.14,T,,M,60.628,N,112.343,K,A*02
599$GPGGA,161205.000,4817.432928,N,01621.427231,E,1,8,0.91,167.153,M,43.429,M,,*5B
600$GPGSA,A,3,14,20,03,28,19,11,22,01,,,,,1.88,0.91,1.64*0F
601$GPRMC,161205.000,A,4817.432928,N,01621.427231,E,60.681,151.60,261207,,,A*6C
602$GPVTG,151.60,T,,M,60.681,N,112.441,K,A*04
603$GPGGA,161206.000,4817.418129,N,01621.439331,E,1,8,0.91,166.854,M,43.428,M,,*59
604$GPGSA,A,3,14,20,03,28,19,11,22,01,,,,,1.88,0.91,1.64*0F
605$GPRMC,161206.000,A,4817.418129,N,01621.439331,E,60.984,151.28,261207,,,A*66
606$GPVTG,151.28,T,,M,60.984,N,113.004,K,A*06
607$GPGGA,161207.000,4817.403359,N,01621.451585,E,1,8,0.91,166.722,M,43.428,M,,*5E
608$GPGSA,A,3,14,20,03,28,19,11,22,01,,,,,1.88,0.91,1.64*0F
609$GPRMC,161207.000,A,4817.403359,N,01621.451585,E,60.871,151.35,261207,,,A*68
610$GPVTG,151.35,T,,M,60.871,N,112.794,K,A*0E
611$GPGGA,161208.000,4817.388519,N,01621.463636,E,1,8,0.91,166.369,M,43.428,M,,*56
612$GPGSA,A,3,14,20,03,28,19,11,22,01,,,,,1.88,0.91,1.64*0F
613$GPRMC,161208.000,A,4817.388519,N,01621.463636,E,60.679,151.27,261207,,,A*6E
614$GPVTG,151.27,T,,M,60.679,N,112.439,K,A*0F
615$GPGGA,161209.000,4817.373513,N,01621.475646,E,1,8,0.91,166.674,M,43.428,M,,*50
616$GPGSA,A,3,14,20,03,28,19,11,22,01,,,,,1.88,0.91,1.64*0F
617$GPGSV,3,1,10,11,56,291,42,01,51,120,36,19,46,181,39,14,45,070,42*7B
618$GPGSV,3,2,10,20,25,243,40,22,21,060,40,03,16,170,37,28,16,299,35*73
619$GPGSV,3,3,10,17,04,324,23,09,03,017,*72
620$GPRMC,161209.000,A,4817.373513,N,01621.475646,E,60.767,151.05,261207,,,A*6F
621$GPVTG,151.05,T,,M,60.767,N,112.601,K,A*08
622$GPGGA,161210.000,4817.358643,N,01621.488154,E,1,8,0.91,166.680,M,43.427,M,,*55
623$GPGSA,A,3,14,20,03,28,19,11,22,01,,,,,1.88,0.91,1.64*0F
624$GPRMC,161210.000,A,4817.358643,N,01621.488154,E,60.671,151.11,261207,,,A*6D
625$GPVTG,151.11,T,,M,60.671,N,112.423,K,A*09
626$GPGGA,161211.000,4817.343774,N,01621.500208,E,1,8,0.91,166.766,M,43.427,M,,*59
627$GPGSA,A,3,14,20,03,28,19,11,22,01,,,,,1.88,0.91,1.64*0F
628$GPRMC,161211.000,A,4817.343774,N,01621.500208,E,61.199,150.83,261207,,,A*62
629$GPVTG,150.83,T,,M,61.199,N,113.402,K,A*01
630$GPGGA,161212.000,4817.329261,N,01621.512648,E,1,8,0.91,166.592,M,43.427,M,,*5D
631$GPGSA,A,3,14,20,03,28,19,11,22,01,,,,,1.88,0.91,1.64*0F
632$GPRMC,161212.000,A,4817.329261,N,01621.512648,E,60.890,150.54,261207,,,A*64
633$GPVTG,150.54,T,,M,60.890,N,112.830,K,A*06
634$GPGGA,161213.000,4817.314629,N,01621.525085,E,1,8,0.91,166.272,M,43.426,M,,*51
635$GPGSA,A,3,14,20,03,28,19,11,22,01,,,,,1.88,0.91,1.64*0F
636$GPRMC,161213.000,A,4817.314629,N,01621.525085,E,60.844,150.38,261207,,,A*63
637$GPVTG,150.38,T,,M,60.844,N,112.743,K,A*0E
638$GPGGA,161214.000,4817.299933,N,01621.537783,E,1,8,0.91,166.257,M,43.426,M,,*53
639$GPGSA,A,3,14,20,03,28,19,11,22,01,,,,,1.88,0.91,1.64*0F
640$GPGSV,3,1,10,11,56,291,42,01,51,120,36,19,46,181,38,14,45,070,42*7A
641$GPGSV,3,2,10,20,25,243,41,22,21,060,39,03,16,170,37,28,16,299,34*7D
642$GPGSV,3,3,10,17,04,324,24,09,03,017,*75
643$GPRMC,161214.000,A,4817.299933,N,01621.537783,E,61.136,150.19,261207,,,A*68
644$GPVTG,150.19,T,,M,61.136,N,113.285,K,A*0E
645$GPGGA,161215.000,4817.285246,N,01621.550387,E,1,8,0.91,166.376,M,43.426,M,,*55
646$GPGSA,A,3,14,20,03,28,19,11,22,01,,,,,1.88,0.91,1.64*0F
647$GPRMC,161215.000,A,4817.285246,N,01621.550387,E,61.126,150.18,261207,,,A*6C
648$GPVTG,150.18,T,,M,61.126,N,113.267,K,A*02
649$GPGGA,161216.000,4817.270446,N,01621.563475,E,1,8,0.91,166.708,M,43.426,M,,*5D
650$GPGSA,A,3,14,20,03,28,19,11,22,01,,,,,1.88,0.91,1.64*0F
651$GPRMC,161216.000,A,4817.270446,N,01621.563475,E,61.046,150.13,261207,,,A*65
652$GPVTG,150.13,T,,M,61.046,N,113.119,K,A*04
653$GPGGA,161217.000,4817.255617,N,01621.576116,E,1,8,0.91,167.049,M,43.425,M,,*59
654$GPGSA,A,3,14,20,03,28,19,11,22,01,,,,,1.88,0.91,1.64*0F
655$GPRMC,161217.000,A,4817.255617,N,01621.576116,E,60.735,149.95,261207,,,A*65
656$GPVTG,149.95,T,,M,60.735,N,112.542,K,A*0B
657$GPGGA,161218.000,4817.241016,N,01621.588988,E,1,8,0.91,167.071,M,43.425,M,,*51
658$GPGSA,A,3,14,20,03,28,19,11,22,01,,,,,1.88,0.91,1.64*0F
659$GPRMC,161218.000,A,4817.241016,N,01621.588988,E,60.448,149.80,261207,,,A*6B
660$GPVTG,149.80,T,,M,60.448,N,112.010,K,A*04
661$GPGGA,161219.000,4817.226720,N,01621.601177,E,1,8,0.91,166.807,M,43.425,M,,*51
662$GPGSA,A,3,14,20,03,28,19,11,22,01,,,,,1.87,0.91,1.64*00
663$GPGSV,3,1,10,11,56,291,43,01,51,120,36,19,46,181,37,14,45,070,42*74
664$GPGSV,3,2,10,20,25,243,40,22,21,060,39,03,16,170,34,28,16,298,35*7F
665$GPGSV,3,3,10,17,04,324,24,09,03,017,*75
666$GPRMC,161219.000,A,4817.226720,N,01621.601177,E,59.663,150.05,261207,,,A*67
667$GPVTG,150.05,T,,M,59.663,N,110.556,K,A*05
668$GPGGA,161220.000,4817.212396,N,01621.613682,E,1,8,0.91,166.567,M,43.424,M,,*51
669$GPGSA,A,3,14,20,03,28,19,11,22,01,,,,,1.88,0.91,1.64*0F
670$GPRMC,161220.000,A,4817.212396,N,01621.613682,E,59.296,149.32,261207,,,A*6F
671$GPVTG,149.32,T,,M,59.296,N,109.875,K,A*03
672$GPGGA,161221.000,4817.198490,N,01621.626262,E,1,8,0.91,166.985,M,43.424,M,,*5C
673$GPGSA,A,3,14,20,03,28,19,11,22,01,,,,,1.87,0.91,1.64*00
674$GPRMC,161221.000,A,4817.198490,N,01621.626262,E,58.085,149.25,261207,,,A*65
675$GPVTG,149.25,T,,M,58.085,N,107.631,K,A*04
676$GPGGA,161222.000,4817.184770,N,01621.638504,E,1,8,0.91,167.271,M,43.424,M,,*56
677$GPGSA,A,3,14,20,03,28,19,11,22,01,,,,,1.87,0.91,1.64*00
678$GPRMC,161222.000,A,4817.184770,N,01621.638504,E,57.165,148.83,261207,,,A*63
679$GPVTG,148.83,T,,M,57.165,N,105.927,K,A*03
680$GPGGA,161223.000,4817.171470,N,01621.650518,E,1,8,0.91,166.624,M,43.424,M,,*58
681$GPGSA,A,3,14,20,03,28,19,11,22,01,,,,,1.87,0.91,1.64*00
682$GPRMC,161223.000,A,4817.171470,N,01621.650518,E,55.850,148.90,261207,,,A*67
683$GPVTG,148.90,T,,M,55.850,N,103.491,K,A*0A
684$GPGGA,161224.000,4817.158649,N,01621.662253,E,1,8,0.91,165.839,M,43.423,M,,*53
685$GPGSA,A,3,14,20,03,28,19,11,22,01,,,,,1.87,0.91,1.64*00
686$GPGSV,3,1,10,11,56,291,43,01,51,120,38,19,46,181,37,14,45,070,43*7B
687$GPGSV,3,2,10,20,25,243,42,22,21,060,39,03,16,170,36,28,16,298,35*7F
688$GPGSV,3,3,10,17,04,324,25,09,03,017,*74
689$GPRMC,161224.000,A,4817.158649,N,01621.662253,E,54.454,148.73,261207,,,A*6E
690$GPVTG,148.73,T,,M,54.454,N,100.904,K,A*0C
691$GPGGA,161225.000,4817.146081,N,01621.673939,E,1,8,0.91,165.458,M,43.423,M,,*53
692$GPGSA,A,3,14,20,03,28,19,11,22,01,,,,,1.87,0.91,1.64*00
693$GPRMC,161225.000,A,4817.146081,N,01621.673939,E,53.671,148.60,261207,,,A*65
694$GPVTG,148.60,T,,M,53.671,N,99.453,K,A*32
695$GPGGA,161226.000,4817.133354,N,01621.685542,E,1,8,0.91,165.342,M,43.423,M,,*5C
696$GPGSA,A,3,14,20,03,28,19,11,22,01,,,,,1.87,0.91,1.64*00
697$GPRMC,161226.000,A,4817.133354,N,01621.685542,E,52.480,148.56,261207,,,A*6E
698$GPVTG,148.56,T,,M,52.480,N,97.245,K,A*35
699$GPGGA,161227.000,4817.120959,N,01621.696837,E,1,8,0.91,165.438,M,43.423,M,,*5F
700$GPGSA,A,3,14,20,03,28,19,11,22,01,,,,,1.87,0.91,1.63*07
701$GPRMC,161227.000,A,4817.120959,N,01621.696837,E,51.484,148.80,261207,,,A*6B
702$GPVTG,148.80,T,,M,51.484,N,95.401,K,A*3D
703$GPGGA,161228.000,4817.108785,N,01621.708088,E,1,8,0.91,165.585,M,43.422,M,,*59
704$GPGSA,A,3,14,20,03,28,19,11,22,01,,,,,1.87,0.91,1.64*00
705$GPRMC,161228.000,A,4817.108785,N,01621.708088,E,50.844,148.68,261207,,,A*6C
706$GPVTG,148.68,T,,M,50.844,N,94.214,K,A*39
707$GPGGA,161229.000,4817.096537,N,01621.719058,E,1,8,0.91,165.966,M,43.422,M,,*59
708$GPGSA,A,3,14,20,03,28,19,11,22,01,,,,,1.87,0.91,1.63*07
709$GPGSV,3,1,10,11,56,291,42,01,51,120,37,19,46,181,37,14,45,070,43*75
710$GPGSV,3,2,10,20,25,243,43,22,21,060,39,03,16,170,35,28,16,298,38*70
711$GPGSV,3,3,10,17,04,324,23,09,02,017,*73
712$GPRMC,161229.000,A,4817.096537,N,01621.719058,E,49.856,149.12,261207,,,A*6A
713$GPVTG,149.12,T,,M,49.856,N,92.382,K,A*36
714$GPGGA,161230.000,4817.084673,N,01621.729367,E,1,8,0.91,165.895,M,43.422,M,,*50
715$GPGSA,A,3,14,20,03,28,19,11,22,01,,,,,1.87,0.91,1.63*07
716$GPRMC,161230.000,A,4817.084673,N,01621.729367,E,49.077,149.28,261207,,,A*6C
717$GPVTG,149.28,T,,M,49.077,N,90.939,K,A*3C
718$GPGGA,161231.000,4817.072902,N,01621.739668,E,1,8,0.91,165.687,M,43.422,M,,*57
719$GPGSA,A,3,14,20,03,28,19,11,22,01,,,,,1.87,0.91,1.63*07
720$GPRMC,161231.000,A,4817.072902,N,01621.739668,E,48.716,150.40,261207,,,A*61
721$GPVTG,150.40,T,,M,48.716,N,90.271,K,A*3C
722$GPGGA,161232.000,4817.061145,N,01621.749533,E,1,8,0.91,166.115,M,43.421,M,,*5B
723$GPGSA,A,3,14,20,03,28,19,11,22,01,,,,,1.87,0.91,1.63*07
724$GPRMC,161232.000,A,4817.061145,N,01621.749533,E,48.427,151.28,261207,,,A*6F
725$GPVTG,151.28,T,,M,48.427,N,89.735,K,A*3F
726$GPGGA,161233.000,4817.049589,N,01621.759330,E,1,8,0.91,166.002,M,43.421,M,,*57
727$GPGSA,A,3,14,20,03,28,19,11,22,01,,,,,1.87,0.91,1.63*07
728$GPRMC,161233.000,A,4817.049589,N,01621.759330,E,48.388,151.36,261207,,,A*69
729$GPVTG,151.36,T,,M,48.388,N,89.663,K,A*30
730$GPGGA,161234.000,4817.037802,N,01621.768895,E,1,8,0.91,165.971,M,43.421,M,,*5F
731$GPGSA,A,3,14,20,03,28,19,11,22,01,,,,,1.87,0.91,1.63*07
732$GPGSV,3,1,10,11,57,291,42,01,51,120,37,19,46,181,37,14,45,070,42*75
733$GPGSV,3,2,10,20,25,243,43,22,21,060,39,03,16,170,37,28,16,298,38*72
734$GPGSV,3,3,10,17,04,324,25,09,02,017,*75
735$GPRMC,161234.000,A,4817.037802,N,01621.768895,E,47.937,150.73,261207,,,A*6E
736$GPVTG,150.73,T,,M,47.937,N,88.828,K,A*31
737$GPGGA,161235.000,4817.026301,N,01621.778812,E,1,8,0.91,165.584,M,43.421,M,,*5E
738$GPGSA,A,3,14,20,03,28,19,11,22,01,,,,,1.87,0.91,1.63*07
739$GPRMC,161235.000,A,4817.026301,N,01621.778812,E,47.879,149.89,261207,,,A*6F
740$GPVTG,149.89,T,,M,47.879,N,88.720,K,A*30
741$GPGGA,161236.000,4817.014612,N,01621.788926,E,1,8,0.91,165.378,M,43.420,M,,*56
742$GPGSA,A,3,14,20,03,28,19,11,22,01,,,,,1.87,0.91,1.63*07
743$GPRMC,161236.000,A,4817.014612,N,01621.788926,E,47.640,150.01,261207,,,A*6F
744$GPVTG,150.01,T,,M,47.640,N,88.278,K,A*34
745$GPGGA,161237.000,4817.003381,N,01621.798421,E,1,9,0.85,164.809,M,43.420,M,,*5D
746$GPGSA,A,3,14,20,03,28,17,19,11,22,01,,,,1.67,0.85,1.44*0F
747$GPRMC,161237.000,A,4817.003381,N,01621.798421,E,47.356,149.83,261207,,,A*6C
748$GPVTG,149.83,T,,M,47.356,N,87.750,K,A*34
749$GPGGA,161238.000,4816.992121,N,01621.808436,E,1,9,0.85,164.512,M,43.420,M,,*5D
750$GPGSA,A,3,14,20,03,28,17,19,11,22,01,,,,1.67,0.85,1.44*0F
751$GPRMC,161238.000,A,4816.992121,N,01621.808436,E,47.074,149.55,261207,,,A*63
752$GPVTG,149.55,T,,M,47.074,N,87.228,K,A*36
753$GPGGA,161239.000,4816.980782,N,01621.818363,E,1,9,0.85,164.799,M,43.420,M,,*57
754$GPGSA,A,3,14,20,03,28,17,19,11,22,01,,,,1.67,0.85,1.44*0F
755$GPGSV,3,1,10,11,57,291,42,01,51,120,37,19,46,181,36,14,45,070,42*74
756$GPGSV,3,2,10,20,25,243,42,22,21,060,40,03,16,170,37,28,16,298,39*7C
757$GPGSV,3,3,10,17,05,324,32,09,02,017,*72
758$GPRMC,161239.000,A,4816.980782,N,01621.818363,E,47.125,149.95,261207,,,A*61
759$GPVTG,149.95,T,,M,47.125,N,87.322,K,A*34
760$GPGGA,161240.000,4816.969201,N,01621.828268,E,1,9,0.85,164.892,M,43.419,M,,*57
761$GPGSA,A,3,14,20,03,28,17,19,11,22,01,,,,1.67,0.85,1.44*0F
762$GPRMC,161240.000,A,4816.969201,N,01621.828268,E,46.910,149.76,261207,,,A*6D
763$GPVTG,149.76,T,,M,46.910,N,86.925,K,A*3A
764$GPGGA,161241.000,4816.958143,N,01621.838199,E,1,9,0.85,164.552,M,43.419,M,,*5C
765$GPGSA,A,3,14,20,03,28,17,19,11,22,01,,,,1.67,0.85,1.44*0F
766$GPRMC,161241.000,A,4816.958143,N,01621.838199,E,46.751,149.82,261207,,,A*67
767$GPVTG,149.82,T,,M,46.751,N,86.630,K,A*31
768$GPGGA,161242.000,4816.946939,N,01621.847938,E,1,9,0.85,164.747,M,43.419,M,,*58
769$GPGSA,A,3,14,20,03,28,17,19,11,22,01,,,,1.67,0.85,1.44*0F
770$GPRMC,161242.000,A,4816.946939,N,01621.847938,E,46.672,150.05,261207,,,A*62
771$GPVTG,150.05,T,,M,46.672,N,86.484,K,A*3B
772$GPGGA,161243.000,4816.935889,N,01621.857664,E,1,9,0.85,164.709,M,43.419,M,,*5A
773$GPGSA,A,3,14,20,03,28,17,19,11,22,01,,,,1.67,0.85,1.44*0F
774$GPRMC,161243.000,A,4816.935889,N,01621.857664,E,46.654,150.16,261207,,,A*6C
775$GPVTG,150.16,T,,M,46.654,N,86.450,K,A*34
776$GPGGA,161244.000,4816.924766,N,01621.867086,E,1,9,0.85,164.333,M,43.419,M,,*57
777$GPGSA,A,3,14,20,03,28,17,19,11,22,01,,,,1.67,0.85,1.44*0F
778$GPGSV,3,1,10,11,57,291,42,01,51,120,37,19,46,181,37,14,45,070,42*75
779$GPGSV,3,2,10,20,25,243,43,22,21,060,40,03,16,170,37,28,16,298,38*7C
780$GPGSV,3,3,10,17,05,324,34,09,02,017,*74
781$GPRMC,161244.000,A,4816.924766,N,01621.867086,E,46.383,149.97,261207,,,A*62
782$GPVTG,149.97,T,,M,46.383,N,85.949,K,A*3C
783$GPGGA,161245.000,4816.913656,N,01621.876782,E,1,9,0.85,164.569,M,43.418,M,,*5B
784$GPGSA,A,3,14,20,03,28,17,19,11,22,01,,,,1.67,0.85,1.44*0F
785$GPRMC,161245.000,A,4816.913656,N,01621.876782,E,46.238,150.01,261207,,,A*60
786$GPVTG,150.01,T,,M,46.238,N,85.679,K,A*36
787$GPGGA,161246.000,4816.902546,N,01621.886314,E,1,9,0.85,164.478,M,43.418,M,,*5F
788$GPGSA,A,3,14,20,03,28,17,19,11,22,01,,,,1.67,0.85,1.44*0F
789$GPRMC,161246.000,A,4816.902546,N,01621.886314,E,46.309,150.46,261207,,,A*65
790$GPVTG,150.46,T,,M,46.309,N,85.811,K,A*36
791$GPGGA,161247.000,4816.891600,N,01621.895870,E,1,9,0.85,164.334,M,43.418,M,,*50
792$GPGSA,A,3,14,20,03,28,17,19,11,22,01,,,,1.67,0.85,1.44*0F
793$GPRMC,161247.000,A,4816.891600,N,01621.895870,E,46.160,150.28,261207,,,A*60
794$GPVTG,150.28,T,,M,46.160,N,85.534,K,A*39
795$GPGGA,161248.000,4816.880497,N,01621.905219,E,1,9,0.85,164.823,M,43.418,M,,*53
796$GPGSA,A,3,14,20,03,28,17,19,11,22,01,,,,1.67,0.85,1.44*0F
797$GPRMC,161248.000,A,4816.880497,N,01621.905219,E,45.926,150.08,261207,,,A*65
798$GPVTG,150.08,T,,M,45.926,N,85.101,K,A*30
799$GPGGA,161249.000,4816.869237,N,01621.914741,E,1,9,0.85,164.957,M,43.417,M,,*5C
800$GPGSA,A,3,14,20,03,28,17,19,11,22,01,,,,1.67,0.85,1.44*0F
801$GPGSV,3,1,10,11,57,291,42,01,51,120,29,19,46,181,30,14,45,070,33*7B
802$GPGSV,3,2,10,20,25,243,43,22,21,060,39,03,16,170,36,28,16,298,39*72
803$GPGSV,3,3,10,17,05,324,34,09,02,017,21*77
804$GPRMC,161249.000,A,4816.869237,N,01621.914741,E,45.611,150.49,261207,,,A*69
805$GPVTG,150.49,T,,M,45.611,N,84.518,K,A*33
806$GPGGA,161250.000,4816.858296,N,01621.924097,E,1,9,0.85,164.543,M,43.417,M,,*5B
807$GPGSA,A,3,14,20,03,28,17,19,11,22,01,,,,1.67,0.85,1.44*0F
808$GPRMC,161250.000,A,4816.858296,N,01621.924097,E,45.813,150.08,261207,,,A*6E
809$GPVTG,150.08,T,,M,45.813,N,84.892,K,A*35
810$GPGGA,161251.000,4816.847429,N,01621.933411,E,1,9,0.85,164.845,M,43.417,M,,*51
811$GPGSA,A,3,14,20,03,28,17,19,11,22,01,,,,1.67,0.85,1.44*0F
812$GPRMC,161251.000,A,4816.847429,N,01621.933411,E,45.696,150.32,261207,,,A*65
813$GPVTG,150.32,T,,M,45.696,N,84.675,K,A*38
814$GPGGA,161252.000,4816.836542,N,01621.942577,E,1,9,0.85,164.717,M,43.417,M,,*57
815$GPGSA,A,3,14,20,03,28,17,19,11,22,01,,,,1.67,0.85,1.44*0F
816$GPRMC,161252.000,A,4816.836542,N,01621.942577,E,45.788,150.59,261207,,,A*68
817$GPVTG,150.59,T,,M,45.788,N,84.845,K,A*36
818$GPGGA,161253.000,4816.825470,N,01621.951869,E,1,9,0.85,164.919,M,43.417,M,,*54
819$GPGSA,A,3,14,20,03,28,17,19,11,22,01,,,,1.67,0.85,1.44*0F
820$GPRMC,161253.000,A,4816.825470,N,01621.951869,E,45.895,150.59,261207,,,A*68
821$GPVTG,150.59,T,,M,45.895,N,85.043,K,A*3A
822$GPGGA,161254.000,4816.814256,N,01621.961479,E,1,9,0.85,164.963,M,43.416,M,,*51
823$GPGSA,A,3,14,20,03,28,17,19,11,22,01,,,,1.67,0.85,1.44*0F
824$GPGSV,3,1,10,11,57,291,42,01,52,119,38,19,46,181,37,14,45,070,42*73
825$GPGSV,3,2,10,20,25,243,42,22,21,060,42,03,16,170,28,28,16,298,38*71
826$GPGSV,3,3,10,17,05,324,22,09,02,017,17*75
827$GPRMC,161254.000,A,4816.814256,N,01621.961479,E,45.942,150.56,261207,,,A*65
828$GPVTG,150.56,T,,M,45.942,N,85.130,K,A*3B
829$GPGGA,161255.000,4816.803589,N,01621.970745,E,1,4,1.58,165.361,M,43.416,M,,*5A
830$GPGSA,A,3,14,03,17,01,,,,,,,,,1.86,1.58,0.99*00
831$GPRMC,161255.000,A,4816.803589,N,01621.970745,E,45.913,150.26,261207,,,A*68
832$GPVTG,150.26,T,,M,45.913,N,85.076,K,A*3B
833$GPGGA,161256.000,4816.792613,N,01621.980108,E,1,9,0.85,165.559,M,43.416,M,,*5F
834$GPGSA,A,3,14,20,03,28,17,19,11,22,01,,,,1.67,0.85,1.44*0F
835$GPRMC,161256.000,A,4816.792613,N,01621.980108,E,45.801,150.59,261207,,,A*66
836$GPVTG,150.59,T,,M,45.801,N,84.870,K,A*3E
837$GPGGA,161257.000,4816.781489,N,01621.989421,E,1,9,0.85,165.576,M,43.416,M,,*57
838$GPGSA,A,3,14,20,03,28,17,19,11,22,01,,,,1.67,0.85,1.43*08
839$GPRMC,161257.000,A,4816.781489,N,01621.989421,E,45.636,151.02,261207,,,A*66
840$GPVTG,151.02,T,,M,45.636,N,84.563,K,A*34
841$GPGGA,161258.000,4816.770504,N,01621.998990,E,1,9,0.85,165.421,M,43.415,M,,*55
842$GPGSA,A,3,14,20,03,28,17,19,11,22,01,,,,1.67,0.85,1.43*08
843$GPRMC,161258.000,A,4816.770504,N,01621.998990,E,45.511,151.25,261207,,,A*67
844$GPVTG,151.25,T,,M,45.511,N,84.332,K,A*35
845$GPGGA,161259.000,4816.759360,N,01622.007952,E,1,9,0.85,165.172,M,43.415,M,,*5A
846$GPGSA,A,3,14,20,03,28,17,19,11,22,01,,,,1.67,0.85,1.43*08
847$GPGSV,3,1,10,11,57,291,41,01,52,119,36,19,46,181,39,14,45,070,41*73
848$GPGSV,3,2,10,20,25,243,41,22,21,060,41,03,16,170,37,28,16,298,35*72
849$GPGSV,3,3,10,17,05,324,27,09,02,017,17*70
850$GPRMC,161259.000,A,4816.759360,N,01622.007952,E,45.499,151.64,261207,,,A*6F
851$GPVTG,151.64,T,,M,45.499,N,84.309,K,A*39
852$GPGGA,161300.000,4816.748209,N,01622.017150,E,1,9,0.85,164.505,M,43.415,M,,*57
853$GPGSA,A,3,14,20,03,28,17,19,11,22,01,,,,1.67,0.85,1.43*08
854$GPRMC,161300.000,A,4816.748209,N,01622.017150,E,45.460,151.78,261207,,,A*6C
855$GPVTG,151.78,T,,M,45.460,N,84.237,K,A*3E
856$GPGGA,161301.000,4816.736977,N,01622.026246,E,1,9,0.85,164.538,M,43.415,M,,*55
857$GPGSA,A,3,14,20,03,28,17,19,11,22,01,,,,1.67,0.85,1.43*08
858$GPRMC,161301.000,A,4816.736977,N,01622.026246,E,45.253,151.33,261207,,,A*69
859$GPVTG,151.33,T,,M,45.253,N,83.853,K,A*38
860$GPGGA,161302.000,4816.725958,N,01622.035270,E,1,9,0.85,164.273,M,43.415,M,,*56
861$GPGSA,A,3,14,20,03,28,17,19,11,22,01,,,,1.67,0.85,1.43*08
862$GPRMC,161302.000,A,4816.725958,N,01622.035270,E,45.545,151.34,261207,,,A*65
863$GPVTG,151.34,T,,M,45.545,N,84.396,K,A*3A
864$GPGGA,161303.000,4816.714894,N,01622.044423,E,1,9,0.85,163.928,M,43.414,M,,*51
865$GPGSA,A,3,14,20,03,28,17,19,11,22,01,,,,1.67,0.85,1.43*08
866$GPRMC,161303.000,A,4816.714894,N,01622.044423,E,45.649,151.23,261207,,,A*68
867$GPVTG,151.23,T,,M,45.649,N,84.588,K,A*3A
868$GPGGA,161304.000,4816.703924,N,01622.054050,E,1,9,0.85,163.588,M,43.414,M,,*5D
869$GPGSA,A,3,14,20,03,28,17,19,11,22,01,,,,1.67,0.85,1.43*08
870$GPGSV,3,1,10,11,57,291,33,01,52,119,35,19,46,181,39,14,45,070,41*75
871$GPGSV,3,2,10,20,25,243,40,22,21,060,39,03,16,170,37,28,16,298,37*7E
872$GPGSV,3,3,10,17,05,324,30,09,02,016,18*78
873$GPRMC,161304.000,A,4816.703924,N,01622.054050,E,45.462,151.08,261207,,,A*60
874$GPVTG,151.08,T,,M,45.462,N,84.241,K,A*3A
875$GPGGA,161305.000,4816.692850,N,01622.062899,E,1,9,0.85,163.637,M,43.414,M,,*58
876$GPGSA,A,3,14,20,03,28,17,19,11,22,01,,,,1.67,0.85,1.43*08
877$GPRMC,161305.000,A,4816.692850,N,01622.062899,E,44.434,151.28,261207,,,A*62
878$GPVTG,151.28,T,,M,44.434,N,82.337,K,A*3C
879$GPGGA,161306.000,4816.682094,N,01622.071754,E,1,9,0.85,163.380,M,43.414,M,,*5F
880$GPGSA,A,3,14,20,03,28,17,19,11,22,01,,,,1.67,0.85,1.43*08
881$GPRMC,161306.000,A,4816.682094,N,01622.071754,E,43.976,151.20,261207,,,A*68
882$GPVTG,151.20,T,,M,43.976,N,81.488,K,A*38
883$GPGGA,161307.000,4816.671145,N,01622.080496,E,1,9,0.85,163.321,M,43.414,M,,*57
884$GPGSA,A,3,14,20,03,28,17,19,11,22,01,,,,1.67,0.85,1.43*08
885$GPRMC,161307.000,A,4816.671145,N,01622.080496,E,43.921,151.30,261207,,,A*68
886$GPVTG,151.30,T,,M,43.921,N,81.386,K,A*32
887$GPGGA,161308.000,4816.660162,N,01622.088855,E,1,9,0.85,163.274,M,43.413,M,,*50
888$GPGSA,A,3,14,20,03,28,17,19,11,22,01,,,,1.67,0.85,1.43*08
889$GPRMC,161308.000,A,4816.660162,N,01622.088855,E,43.843,151.57,261207,,,A*6D
890$GPVTG,151.57,T,,M,43.843,N,81.242,K,A*3F
891$GPGGA,161309.000,4816.649526,N,01622.097330,E,1,9,0.85,163.056,M,43.413,M,,*5A
892$GPGSA,A,3,14,20,03,28,17,19,11,22,01,,,,1.67,0.85,1.43*08
893$GPGSV,3,1,10,11,57,291,40,01,52,119,34,19,46,181,37,14,45,069,39*79
894$GPGSV,3,2,10,20,25,243,39,22,21,060,35,03,16,170,35,28,16,298,33*7A
895$GPGSV,3,3,10,17,05,324,22,09,02,016,15*76
896$GPRMC,161309.000,A,4816.649526,N,01622.097330,E,44.118,151.98,261207,,,A*66
897$GPVTG,151.98,T,,M,44.118,N,81.751,K,A*3B
898$GPGGA,161310.000,4816.638721,N,01622.105927,E,1,9,0.85,163.310,M,43.413,M,,*56
899$GPGSA,A,3,14,20,03,28,17,19,11,22,01,,,,1.67,0.85,1.43*08
900$GPRMC,161310.000,A,4816.638721,N,01622.105927,E,44.254,151.86,261207,,,A*6F
901$GPVTG,151.86,T,,M,44.254,N,82.003,K,A*3C
902$GPGGA,161311.000,4816.627778,N,01622.114582,E,1,9,0.85,162.589,M,43.413,M,,*51
903$GPGSA,A,3,14,20,03,28,17,19,11,22,01,,,,1.67,0.85,1.43*08
904$GPRMC,161311.000,A,4816.627778,N,01622.114582,E,44.901,152.03,261207,,,A*6A
905$GPVTG,152.03,T,,M,44.901,N,83.201,K,A*38
906$GPGGA,161312.000,4816.616583,N,01622.123504,E,1,9,0.85,162.322,M,43.413,M,,*5B
907$GPGSA,A,3,14,20,03,28,17,19,11,22,01,,,,1.67,0.85,1.43*08
908$GPRMC,161312.000,A,4816.616583,N,01622.123504,E,44.893,151.90,261207,,,A*64
909$GPVTG,151.90,T,,M,44.893,N,83.186,K,A*37
910$GPGGA,161313.000,4816.605706,N,01622.132649,E,1,9,0.85,163.059,M,43.412,M,,*52
911$GPGSA,A,3,14,20,03,28,17,19,11,22,01,,,,1.67,0.85,1.43*08
912$GPRMC,161313.000,A,4816.605706,N,01622.132649,E,44.847,151.59,261207,,,A*6E
913$GPVTG,151.59,T,,M,44.847,N,83.101,K,A*34
914$GPGGA,161314.000,4816.594529,N,01622.141368,E,1,9,0.85,163.491,M,43.412,M,,*53
915$GPGSA,A,3,14,20,03,28,17,19,11,22,01,,,,1.67,0.85,1.43*08
916$GPGSV,3,1,10,11,57,291,40,01,52,119,34,19,46,181,38,14,45,069,39*76
917$GPGSV,3,2,10,20,25,243,41,22,21,060,36,03,16,170,36,28,16,298,36*70
918$GPGSV,3,3,10,17,05,324,21,09,02,016,16*76
919$GPRMC,161314.000,A,4816.594529,N,01622.141368,E,44.536,151.79,261207,,,A*66
920$GPVTG,151.79,T,,M,44.536,N,82.526,K,A*3D
921$GPGGA,161315.000,4816.583621,N,01622.150433,E,1,9,0.85,163.959,M,43.412,M,,*5F
922$GPGSA,A,3,14,20,03,28,17,19,11,22,01,,,,1.67,0.85,1.43*08
923$GPRMC,161315.000,A,4816.583621,N,01622.150433,E,44.230,151.63,261207,,,A*69
924$GPVTG,151.63,T,,M,44.230,N,81.958,K,A*31
925$GPGGA,161316.000,4816.572884,N,01622.159371,E,1,9,0.85,164.036,M,43.412,M,,*5C
926$GPGSA,A,3,14,20,03,28,17,19,11,22,01,,,,1.67,0.85,1.43*08
927$GPRMC,161316.000,A,4816.572884,N,01622.159371,E,44.053,151.72,261207,,,A*6A
928$GPVTG,151.72,T,,M,44.053,N,81.631,K,A*36
929$GPGGA,161317.000,4816.562340,N,01622.167945,E,1,8,0.91,164.209,M,43.411,M,,*56
930$GPGSA,A,3,14,20,03,28,19,11,22,01,,,,,1.86,0.91,1.62*07
931$GPRMC,161317.000,A,4816.562340,N,01622.167945,E,43.871,151.87,261207,,,A*6C
932$GPVTG,151.87,T,,M,43.871,N,81.294,K,A*38
933$GPGGA,161318.000,4816.551609,N,01622.176442,E,1,9,0.85,164.015,M,43.411,M,,*50
934$GPGSA,A,3,14,20,03,28,17,19,11,22,01,,,,1.67,0.85,1.43*08
935$GPRMC,161318.000,A,4816.551609,N,01622.176442,E,43.792,152.33,261207,,,A*6F
936$GPVTG,152.33,T,,M,43.792,N,81.147,K,A*3B
937$GPGGA,161319.000,4816.540635,N,01622.184892,E,1,9,0.85,163.986,M,43.411,M,,*56
938$GPGSA,A,3,14,20,03,28,17,19,11,22,01,,,,1.66,0.85,1.43*09
939$GPGSV,3,1,10,11,57,291,41,01,52,119,37,19,46,181,39,14,45,069,40*7B
940$GPGSV,3,2,10,20,25,243,40,22,21,060,36,03,16,170,37,28,16,298,35*73
941$GPGSV,3,3,10,17,05,324,23,09,02,016,17*75
942$GPRMC,161319.000,A,4816.540635,N,01622.184892,E,43.838,153.49,261207,,,A*6E
943$GPVTG,153.49,T,,M,43.838,N,81.232,K,A*39
944$GPGGA,161320.000,4816.529695,N,01622.192695,E,1,9,0.85,163.617,M,43.411,M,,*50
945$GPGSA,A,3,14,20,03,28,17,19,11,22,01,,,,1.66,0.85,1.43*09
946$GPRMC,161320.000,A,4816.529695,N,01622.192695,E,43.281,154.57,261207,,,A*6F
947$GPVTG,154.57,T,,M,43.281,N,80.199,K,A*3A
948$GPGGA,161321.000,4816.518819,N,01622.200651,E,1,9,0.85,162.986,M,43.411,M,,*5F
949$GPGSA,A,3,14,20,03,28,17,19,11,22,01,,,,1.66,0.85,1.43*09
950$GPRMC,161321.000,A,4816.518819,N,01622.200651,E,42.756,153.86,261207,,,A*63
951$GPVTG,153.86,T,,M,42.756,N,79.226,K,A*3E
952$GPGGA,161322.000,4816.508372,N,01622.208788,E,1,9,0.85,162.462,M,43.410,M,,*50
953$GPGSA,A,3,14,20,03,28,17,19,11,22,01,,,,1.67,0.85,1.43*08
954$GPRMC,161322.000,A,4816.508372,N,01622.208788,E,42.459,152.26,261207,,,A*6D
955$GPVTG,152.26,T,,M,42.459,N,78.676,K,A*39
956$GPGGA,161323.000,4816.498030,N,01622.217218,E,1,9,0.85,162.576,M,43.410,M,,*5A
957$GPGSA,A,3,14,20,03,28,17,19,11,22,01,,,,1.66,0.85,1.43*09
958$GPRMC,161323.000,A,4816.498030,N,01622.217218,E,42.265,151.25,261207,,,A*6A
959$GPVTG,151.25,T,,M,42.265,N,78.316,K,A*33
960$GPGGA,161324.000,4816.487701,N,01622.225398,E,1,9,0.85,162.295,M,43.410,M,,*54
961$GPGSA,A,3,14,20,03,28,17,19,11,22,01,,,,1.66,0.85,1.43*09
962$GPGSV,3,1,10,11,57,291,42,01,52,119,38,19,46,181,37,14,45,069,41*78
963$GPGSV,3,2,10,20,25,243,38,22,21,060,39,03,16,170,36,28,16,298,27*71
964$GPGSV,3,3,10,17,05,324,24,09,02,016,16*73
965$GPRMC,161324.000,A,4816.487701,N,01622.225398,E,41.427,152.36,261207,,,A*6C
966$GPVTG,152.36,T,,M,41.427,N,76.763,K,A*39
967$GPGGA,161325.000,4816.477456,N,01622.232940,E,1,9,0.85,162.467,M,43.410,M,,*59
968$GPGSA,A,3,14,20,03,28,17,19,11,22,01,,,,1.66,0.85,1.43*09
969$GPRMC,161325.000,A,4816.477456,N,01622.232940,E,40.608,152.21,261207,,,A*62
970$GPVTG,152.21,T,,M,40.608,N,75.247,K,A*31
971$GPGGA,161326.000,4816.467601,N,01622.240527,E,1,9,0.85,161.924,M,43.410,M,,*5A
972$GPGSA,A,3,14,20,03,28,17,19,11,22,01,,,,1.66,0.85,1.43*09
973$GPRMC,161326.000,A,4816.467601,N,01622.240527,E,39.672,151.80,261207,,,A*63
974$GPVTG,151.80,T,,M,39.672,N,73.512,K,A*3B
975$GPGGA,161327.000,4816.457905,N,01622.248491,E,1,9,0.85,162.730,M,43.410,M,,*5F
976$GPGSA,A,3,14,20,03,28,17,19,11,22,01,,,,1.66,0.85,1.43*09
977$GPRMC,161327.000,A,4816.457905,N,01622.248491,E,39.121,151.55,261207,,,A*67
978$GPVTG,151.55,T,,M,39.121,N,72.491,K,A*39
979$GPGGA,161328.000,4816.448590,N,01622.256221,E,1,8,0.91,162.761,M,43.409,M,,*54
980$GPGSA,A,3,14,20,03,28,19,11,22,01,,,,,1.86,0.91,1.62*07
981$GPRMC,161328.000,A,4816.448590,N,01622.256221,E,38.318,151.09,261207,,,A*64
982$GPVTG,151.09,T,,M,38.318,N,71.004,K,A*32
983$GPGGA,161329.000,4816.439348,N,01622.263985,E,1,9,0.85,162.901,M,43.409,M,,*5F
984$GPGSA,A,3,14,20,03,28,17,19,11,22,01,,,,1.66,0.85,1.43*09
985$GPGSV,3,1,10,11,57,291,42,01,52,119,37,19,46,181,39,14,45,069,40*78
986$GPGSV,3,2,10,20,25,243,38,22,21,060,40,03,16,170,36,28,16,298,30*79
987$GPGSV,3,3,10,17,05,324,21,09,02,016,17*77
988$GPRMC,161329.000,A,4816.439348,N,01622.263985,E,38.056,151.63,261207,,,A*66
989$GPVTG,151.63,T,,M,38.056,N,70.518,K,A*3E
990$GPGGA,161330.000,4816.429986,N,01622.271497,E,1,9,0.85,162.974,M,43.409,M,,*51
991$GPGSA,A,3,14,20,03,28,17,19,11,22,01,,,,1.66,0.85,1.43*09
992$GPRMC,161330.000,A,4816.429986,N,01622.271497,E,37.975,151.85,261207,,,A*65
993$GPVTG,151.85,T,,M,37.975,N,70.367,K,A*3F
994$GPGGA,161331.000,4816.420806,N,01622.279053,E,1,9,0.85,162.757,M,43.409,M,,*5B
995$GPGSA,A,3,14,20,03,28,17,19,11,22,01,,,,1.66,0.85,1.43*09
996$GPRMC,161331.000,A,4816.420806,N,01622.279053,E,37.876,151.93,261207,,,A*65
997$GPVTG,151.93,T,,M,37.876,N,70.183,K,A*32
998$GPGGA,161332.000,4816.411718,N,01622.286272,E,1,9,0.85,161.964,M,43.409,M,,*56
999$GPGSA,A,3,14,20,03,28,17,19,11,22,01,,,,1.66,0.85,1.43*09
1000$GPRMC,161332.000,A,4816.411718,N,01622.286272,E,37.705,152.26,261207,,,A*63
1001$GPVTG,152.26,T,,M,37.705,N,69.867,K,A*3F
1002$GPGGA,161333.000,4816.402320,N,01622.293308,E,1,9,0.85,161.816,M,43.408,M,,*57
1003$GPGSA,A,3,14,20,03,28,17,19,11,22,01,,,,1.66,0.85,1.43*09
1004$GPRMC,161333.000,A,4816.402320,N,01622.293308,E,37.786,151.99,261207,,,A*6B
1005$GPVTG,151.99,T,,M,37.786,N,70.018,K,A*3B
1006$GPGGA,161334.000,4816.393189,N,01622.300484,E,1,9,0.85,161.952,M,43.408,M,,*57
1007$GPGSA,A,3,14,20,03,28,17,19,11,22,01,,,,1.66,0.85,1.43*09
1008$GPGSV,3,1,10,11,57,291,41,01,52,119,36,19,46,181,39,14,45,069,40*7A
1009$GPGSV,3,2,10,20,25,243,35,22,21,060,39,03,16,170,36,28,16,298,30*7A
1010$GPGSV,3,3,10,17,05,324,19,09,02,016,17*7C
1011$GPRMC,161334.000,A,4816.393189,N,01622.300484,E,37.934,151.58,261207,,,A*60
1012$GPVTG,151.58,T,,M,37.934,N,70.291,K,A*32
1013$GPGGA,161335.000,4816.383792,N,01622.308089,E,1,9,0.85,162.514,M,43.408,M,,*57
1014$GPGSA,A,3,14,20,03,28,17,19,11,22,01,,,,1.66,0.85,1.43*09
1015$GPRMC,161335.000,A,4816.383792,N,01622.308089,E,38.088,151.52,261207,,,A*66
1016$GPVTG,151.52,T,,M,38.088,N,70.577,K,A*36
1017$GPGGA,161336.000,4816.374377,N,01622.316138,E,1,9,0.85,163.024,M,43.408,M,,*50
1018$GPGSA,A,3,14,20,03,28,17,19,11,22,01,,,,1.66,0.85,1.43*09
1019$GPRMC,161336.000,A,4816.374377,N,01622.316138,E,38.169,151.31,261207,,,A*6D
1020$GPVTG,151.31,T,,M,38.169,N,70.727,K,A*3A
1021$GPGGA,161337.000,4816.365248,N,01622.323654,E,1,9,0.85,162.928,M,43.408,M,,*53
1022$GPGSA,A,3,14,20,03,28,17,19,11,22,01,,,,1.66,0.85,1.43*09
1023$GPRMC,161337.000,A,4816.365248,N,01622.323654,E,38.171,151.70,261207,,,A*66
1024$GPVTG,151.70,T,,M,38.171,N,70.732,K,A*32
1025$GPGGA,161338.000,4816.355980,N,01622.331065,E,1,9,0.85,162.900,M,43.408,M,,*5D
1026$GPGSA,A,3,14,20,03,28,17,19,11,22,01,,,,1.66,0.85,1.43*09
1027$GPRMC,161338.000,A,4816.355980,N,01622.331065,E,38.358,151.81,261207,,,A*65
1028$GPVTG,151.81,T,,M,38.358,N,71.078,K,A*3D
1029$GPGGA,161339.000,4816.346673,N,01622.338697,E,1,9,0.85,162.936,M,43.407,M,,*55
1030$GPGSA,A,3,14,20,03,28,17,19,11,22,01,,,,1.66,0.85,1.43*09
1031$GPGSV,3,1,10,11,57,291,42,01,52,119,36,19,46,181,40,14,45,069,40*77
1032$GPGSV,3,2,10,20,25,243,35,22,21,060,40,03,16,170,32,28,16,298,28*79
1033$GPGSV,3,3,10,17,05,324,19,09,02,016,17*7C
1034$GPRMC,161339.000,A,4816.346673,N,01622.338697,E,38.859,151.55,261207,,,A*64
1035$GPVTG,151.55,T,,M,38.859,N,72.005,K,A*37
1036$GPGGA,161340.000,4816.337189,N,01622.346584,E,1,9,0.85,163.237,M,43.407,M,,*5C
1037$GPGSA,A,3,14,20,03,28,17,19,11,22,01,,,,1.66,0.85,1.43*09
1038$GPRMC,161340.000,A,4816.337189,N,01622.346584,E,38.952,151.52,261207,,,A*6B
1039$GPVTG,151.52,T,,M,38.952,N,72.179,K,A*30
1040$GPGGA,161341.000,4816.327612,N,01622.354132,E,1,8,0.91,163.098,M,43.407,M,,*50
1041$GPGSA,A,3,14,20,03,28,19,11,22,01,,,,,1.85,0.91,1.61*07
1042$GPRMC,161341.000,A,4816.327612,N,01622.354132,E,39.066,151.71,261207,,,A*6A
1043$GPVTG,151.71,T,,M,39.066,N,72.389,K,A*33
1044$GPGGA,161342.000,4816.317818,N,01622.361969,E,1,8,0.91,163.149,M,43.407,M,,*59
1045$GPGSA,A,3,14,20,03,28,19,11,22,01,,,,,1.85,0.91,1.61*07
1046$GPRMC,161342.000,A,4816.317818,N,01622.361969,E,39.274,151.58,261207,,,A*64
1047$GPVTG,151.58,T,,M,39.274,N,72.775,K,A*3E
1048$GPGGA,161343.000,4816.308086,N,01622.369828,E,1,9,0.85,163.080,M,43.407,M,,*55
1049$GPGSA,A,3,14,20,03,28,17,19,11,22,01,,,,1.66,0.85,1.43*09
1050$GPRMC,161343.000,A,4816.308086,N,01622.369828,E,39.246,151.91,261207,,,A*6C
1051$GPVTG,151.91,T,,M,39.246,N,72.723,K,A*39
1052$GPGGA,161344.000,4816.298536,N,01622.377629,E,1,9,0.85,162.734,M,43.406,M,,*5C
1053$GPGSA,A,3,14,20,03,28,17,19,11,22,01,,,,1.66,0.85,1.43*09
1054$GPGSV,3,1,10,11,57,291,43,01,52,119,36,19,46,181,41,14,45,069,41*76
1055$GPGSV,3,2,10,20,25,243,36,22,21,060,40,03,16,170,37,28,16,298,27*70
1056$GPGSV,3,3,10,17,05,324,20,09,02,016,17*76
1057$GPRMC,161344.000,A,4816.298536,N,01622.377629,E,39.396,152.01,261207,,,A*6B
1058$GPVTG,152.01,T,,M,39.396,N,73.000,K,A*38
1059$GPGGA,161345.000,4816.288829,N,01622.385393,E,1,9,0.85,162.454,M,43.406,M,,*53
1060$GPGSA,A,3,14,20,03,28,17,19,11,22,01,,,,1.66,0.85,1.43*09
1061$GPRMC,161345.000,A,4816.288829,N,01622.385393,E,39.643,151.46,261207,,,A*6C
1062$GPVTG,151.46,T,,M,39.643,N,73.458,K,A*3C
1063$GPGGA,161346.000,4816.279137,N,01622.393386,E,1,9,0.85,162.611,M,43.406,M,,*58
1064$GPGSA,A,3,14,20,03,28,17,19,11,22,01,,,,1.66,0.85,1.43*09
1065$GPRMC,161346.000,A,4816.279137,N,01622.393386,E,39.820,151.74,261207,,,A*6E
1066$GPVTG,151.74,T,,M,39.820,N,73.787,K,A*37
1067$GPGGA,161347.000,4816.269357,N,01622.401170,E,1,9,0.85,163.146,M,43.406,M,,*5F
1068$GPGSA,A,3,14,20,03,28,17,19,11,22,01,,,,1.66,0.85,1.43*09
1069$GPRMC,161347.000,A,4816.269357,N,01622.401170,E,40.011,151.35,261207,,,A*6C
1070$GPVTG,151.35,T,,M,40.011,N,74.140,K,A*3C
1071$GPGGA,161348.000,4816.259478,N,01622.408972,E,1,9,0.85,163.250,M,43.406,M,,*5E
1072$GPGSA,A,3,14,20,03,28,17,19,11,22,01,,,,1.66,0.85,1.43*09
1073$GPRMC,161348.000,A,4816.259478,N,01622.408972,E,40.254,151.39,261207,,,A*66
1074$GPVTG,151.39,T,,M,40.254,N,74.592,K,A*38
1075$GPGGA,161349.000,4816.249557,N,01622.417295,E,1,9,0.85,163.602,M,43.405,M,,*5E
1076$GPGSA,A,3,14,20,03,28,17,19,11,22,01,,,,1.66,0.85,1.43*09
1077$GPGSV,3,1,10,11,57,291,43,01,52,119,37,19,46,181,41,14,45,069,41*77
1078$GPGSV,3,2,10,20,25,243,38,22,21,060,41,03,16,170,38,28,16,298,31*77
1079$GPGSV,3,3,10,17,05,324,22,09,02,016,17*74
1080$GPRMC,161349.000,A,4816.249557,N,01622.417295,E,40.391,151.48,261207,,,A*68
1081$GPVTG,151.48,T,,M,40.391,N,74.845,K,A*31
1082$GPGGA,161350.000,4816.239605,N,01622.425407,E,1,9,0.85,164.261,M,43.405,M,,*5F
1083$GPGSA,A,3,14,20,03,28,17,19,11,22,01,,,,1.66,0.85,1.43*09
1084$GPRMC,161350.000,A,4816.239605,N,01622.425407,E,40.609,151.81,261207,,,A*6E
1085$GPVTG,151.81,T,,M,40.609,N,75.249,K,A*37
1086$GPGGA,161351.000,4816.229624,N,01622.433549,E,1,8,0.91,165.040,M,43.405,M,,*54
1087$GPGSA,A,3,14,20,03,28,19,11,22,01,,,,,1.85,0.91,1.61*07
1088$GPRMC,161351.000,A,4816.229624,N,01622.433549,E,40.332,151.76,261207,,,A*64
1089$GPVTG,151.76,T,,M,40.332,N,74.736,K,A*3E
1090$GPGGA,161352.000,4816.219519,N,01622.441468,E,1,9,0.85,164.979,M,43.405,M,,*58
1091$GPGSA,A,3,14,20,03,28,17,19,11,22,01,,,,1.66,0.85,1.43*09
1092$GPRMC,161352.000,A,4816.219519,N,01622.441468,E,39.847,152.01,261207,,,A*6A